<?xml version="1.0" encoding="UTF-8" standalone="no" ?>
<gpx xmlns="http://www.topografix.com/GPX/1/1" xmlns:xsi="http://www.w3.org/2001/XMLSchema-instance" xsi:schemaLocation="http://www.topografix.com/GPX/1/1 http://www.topografix.com/GPX/1/1/gpx.xsd" version="1.1" creator="VisuGPX - https://www.visugpx.com">
  <metadata>
    <name>MN 92 Meudon Soutenue A3</name>
    <desc><![CDATA[Marche Nordique dans le bois de Meudon, à allure soutenue, avec Annick.]]></desc>
  </metadata>
  <trk>
    <name><![CDATA[31 août 2014]]></name>
    <cmt><![CDATA[09:11:52]]></cmt>
    <desc><![CDATA[comment ...]]></desc>
    <trkseg>
      <trkpt lat="48.79339" lon="2.18559">
        <ele>142</ele>
        <time>2014-08-31T09:11:54Z</time>
      </trkpt>
      <trkpt lat="48.79339" lon="2.18559">
        <ele>142</ele>
        <time>2014-08-31T09:11:55Z</time>
      </trkpt>
      <trkpt lat="48.79337" lon="2.18551">
        <ele>140</ele>
        <time>2014-08-31T09:13:18Z</time>
      </trkpt>
      <trkpt lat="48.79332" lon="2.18547">
        <ele>142</ele>
        <time>2014-08-31T09:13:22Z</time>
      </trkpt>
      <trkpt lat="48.79327" lon="2.18546">
        <ele>141</ele>
        <time>2014-08-31T09:13:33Z</time>
      </trkpt>
      <trkpt lat="48.7932" lon="2.1856">
        <ele>131</ele>
        <time>2014-08-31T09:13:41Z</time>
      </trkpt>
      <trkpt lat="48.79316" lon="2.1859">
        <ele>123</ele>
        <time>2014-08-31T09:13:57Z</time>
      </trkpt>
      <trkpt lat="48.79313" lon="2.18595">
        <ele>121</ele>
        <time>2014-08-31T09:14:00Z</time>
      </trkpt>
      <trkpt lat="48.79312" lon="2.18603">
        <ele>123</ele>
        <time>2014-08-31T09:14:04Z</time>
      </trkpt>
      <trkpt lat="48.79305" lon="2.18618">
        <ele>123</ele>
        <time>2014-08-31T09:14:12Z</time>
      </trkpt>
      <trkpt lat="48.79305" lon="2.18627">
        <ele>123</ele>
        <time>2014-08-31T09:14:17Z</time>
      </trkpt>
      <trkpt lat="48.79301" lon="2.18633">
        <ele>120</ele>
        <time>2014-08-31T09:14:21Z</time>
      </trkpt>
      <trkpt lat="48.79299" lon="2.18641">
        <ele>122</ele>
        <time>2014-08-31T09:14:25Z</time>
      </trkpt>
      <trkpt lat="48.79297" lon="2.18658">
        <ele>123</ele>
        <time>2014-08-31T09:14:34Z</time>
      </trkpt>
      <trkpt lat="48.79286" lon="2.18676">
        <ele>124</ele>
        <time>2014-08-31T09:14:44Z</time>
      </trkpt>
      <trkpt lat="48.7929" lon="2.18685">
        <ele>120</ele>
        <time>2014-08-31T09:14:48Z</time>
      </trkpt>
      <trkpt lat="48.79287" lon="2.18694">
        <ele>117</ele>
        <time>2014-08-31T09:14:53Z</time>
      </trkpt>
      <trkpt lat="48.79282" lon="2.18699">
        <ele>114</ele>
        <time>2014-08-31T09:14:58Z</time>
      </trkpt>
      <trkpt lat="48.79278" lon="2.18706">
        <ele>121</ele>
        <time>2014-08-31T09:15:03Z</time>
      </trkpt>
      <trkpt lat="48.79277" lon="2.18715">
        <ele>121</ele>
        <time>2014-08-31T09:15:07Z</time>
      </trkpt>
      <trkpt lat="48.79269" lon="2.18727">
        <ele>123</ele>
        <time>2014-08-31T09:15:14Z</time>
      </trkpt>
      <trkpt lat="48.79271" lon="2.18734">
        <ele>125</ele>
        <time>2014-08-31T09:15:18Z</time>
      </trkpt>
      <trkpt lat="48.79273" lon="2.18742">
        <ele>127</ele>
        <time>2014-08-31T09:15:21Z</time>
      </trkpt>
      <trkpt lat="48.7927" lon="2.1875">
        <ele>128</ele>
        <time>2014-08-31T09:15:25Z</time>
      </trkpt>
      <trkpt lat="48.79265" lon="2.18755">
        <ele>127</ele>
        <time>2014-08-31T09:15:29Z</time>
      </trkpt>
      <trkpt lat="48.79263" lon="2.18764">
        <ele>130</ele>
        <time>2014-08-31T09:15:33Z</time>
      </trkpt>
      <trkpt lat="48.79261" lon="2.1878">
        <ele>134</ele>
        <time>2014-08-31T09:15:40Z</time>
      </trkpt>
      <trkpt lat="48.79255" lon="2.18786">
        <ele>134</ele>
        <time>2014-08-31T09:15:43Z</time>
      </trkpt>
      <trkpt lat="48.79251" lon="2.18801">
        <ele>133</ele>
        <time>2014-08-31T09:15:51Z</time>
      </trkpt>
      <trkpt lat="48.79248" lon="2.18815">
        <ele>135</ele>
        <time>2014-08-31T09:15:58Z</time>
      </trkpt>
      <trkpt lat="48.79245" lon="2.18826">
        <ele>135</ele>
        <time>2014-08-31T09:16:06Z</time>
      </trkpt>
      <trkpt lat="48.79235" lon="2.18834">
        <ele>138</ele>
        <time>2014-08-31T09:16:12Z</time>
      </trkpt>
      <trkpt lat="48.79231" lon="2.18858">
        <ele>137</ele>
        <time>2014-08-31T09:16:28Z</time>
      </trkpt>
      <trkpt lat="48.79227" lon="2.18866">
        <ele>140</ele>
        <time>2014-08-31T09:16:32Z</time>
      </trkpt>
      <trkpt lat="48.79222" lon="2.189">
        <ele>139</ele>
        <time>2014-08-31T09:16:45Z</time>
      </trkpt>
      <trkpt lat="48.79216" lon="2.18933">
        <ele>143</ele>
        <time>2014-08-31T09:16:58Z</time>
      </trkpt>
      <trkpt lat="48.79216" lon="2.18944">
        <ele>145</ele>
        <time>2014-08-31T09:17:02Z</time>
      </trkpt>
      <trkpt lat="48.79195" lon="2.19">
        <ele>139</ele>
        <time>2014-08-31T09:17:27Z</time>
      </trkpt>
      <trkpt lat="48.79196" lon="2.19009">
        <ele>137</ele>
        <time>2014-08-31T09:17:30Z</time>
      </trkpt>
      <trkpt lat="48.79184" lon="2.19077">
        <ele>135</ele>
        <time>2014-08-31T09:18:03Z</time>
      </trkpt>
      <trkpt lat="48.79172" lon="2.19107">
        <ele>135</ele>
        <time>2014-08-31T09:18:16Z</time>
      </trkpt>
      <trkpt lat="48.79173" lon="2.19124">
        <ele>136</ele>
        <time>2014-08-31T09:18:24Z</time>
      </trkpt>
      <trkpt lat="48.79168" lon="2.19139">
        <ele>135</ele>
        <time>2014-08-31T09:18:34Z</time>
      </trkpt>
      <trkpt lat="48.79159" lon="2.1915">
        <ele>133</ele>
        <time>2014-08-31T09:18:44Z</time>
      </trkpt>
      <trkpt lat="48.79151" lon="2.19163">
        <ele>138</ele>
        <time>2014-08-31T09:18:51Z</time>
      </trkpt>
      <trkpt lat="48.79149" lon="2.19191">
        <ele>131</ele>
        <time>2014-08-31T09:19:01Z</time>
      </trkpt>
      <trkpt lat="48.79148" lon="2.19208">
        <ele>126</ele>
        <time>2014-08-31T09:19:08Z</time>
      </trkpt>
      <trkpt lat="48.79135" lon="2.19285">
        <ele>116</ele>
        <time>2014-08-31T09:19:41Z</time>
      </trkpt>
      <trkpt lat="48.79136" lon="2.1929">
        <ele>116</ele>
        <time>2014-08-31T09:19:43Z</time>
      </trkpt>
      <trkpt lat="48.79136" lon="2.19295">
        <ele>118</ele>
        <time>2014-08-31T09:19:45Z</time>
      </trkpt>
      <trkpt lat="48.79135" lon="2.19299">
        <ele>120</ele>
        <time>2014-08-31T09:19:47Z</time>
      </trkpt>
      <trkpt lat="48.79131" lon="2.19306">
        <ele>120</ele>
        <time>2014-08-31T09:19:51Z</time>
      </trkpt>
      <trkpt lat="48.79132" lon="2.1931">
        <ele>119</ele>
        <time>2014-08-31T09:19:53Z</time>
      </trkpt>
      <trkpt lat="48.79129" lon="2.19316">
        <ele>122</ele>
        <time>2014-08-31T09:19:57Z</time>
      </trkpt>
      <trkpt lat="48.79124" lon="2.19321">
        <ele>123</ele>
        <time>2014-08-31T09:20:01Z</time>
      </trkpt>
      <trkpt lat="48.79121" lon="2.1933">
        <ele>128</ele>
        <time>2014-08-31T09:20:05Z</time>
      </trkpt>
      <trkpt lat="48.79118" lon="2.19337">
        <ele>132</ele>
        <time>2014-08-31T09:20:09Z</time>
      </trkpt>
      <trkpt lat="48.79113" lon="2.1939">
        <ele>132</ele>
        <time>2014-08-31T09:20:33Z</time>
      </trkpt>
      <trkpt lat="48.79111" lon="2.19394">
        <ele>134</ele>
        <time>2014-08-31T09:20:35Z</time>
      </trkpt>
      <trkpt lat="48.79095" lon="2.19452">
        <ele>137</ele>
        <time>2014-08-31T09:21:05Z</time>
      </trkpt>
      <trkpt lat="48.7909" lon="2.19482">
        <ele>137</ele>
        <time>2014-08-31T09:21:19Z</time>
      </trkpt>
      <trkpt lat="48.79079" lon="2.19532">
        <ele>137</ele>
        <time>2014-08-31T09:21:41Z</time>
      </trkpt>
      <trkpt lat="48.79076" lon="2.19538">
        <ele>139</ele>
        <time>2014-08-31T09:21:44Z</time>
      </trkpt>
      <trkpt lat="48.79064" lon="2.19606">
        <ele>139</ele>
        <time>2014-08-31T09:22:14Z</time>
      </trkpt>
      <trkpt lat="48.79061" lon="2.19617">
        <ele>141</ele>
        <time>2014-08-31T09:22:18Z</time>
      </trkpt>
      <trkpt lat="48.79057" lon="2.19627">
        <ele>139</ele>
        <time>2014-08-31T09:22:22Z</time>
      </trkpt>
      <trkpt lat="48.79058" lon="2.19632">
        <ele>139</ele>
        <time>2014-08-31T09:22:24Z</time>
      </trkpt>
      <trkpt lat="48.79055" lon="2.19641">
        <ele>141</ele>
        <time>2014-08-31T09:22:29Z</time>
      </trkpt>
      <trkpt lat="48.79049" lon="2.19652">
        <ele>141</ele>
        <time>2014-08-31T09:22:35Z</time>
      </trkpt>
      <trkpt lat="48.79048" lon="2.19658">
        <ele>141</ele>
        <time>2014-08-31T09:22:37Z</time>
      </trkpt>
      <trkpt lat="48.79043" lon="2.19681">
        <ele>137</ele>
        <time>2014-08-31T09:22:46Z</time>
      </trkpt>
      <trkpt lat="48.79032" lon="2.197">
        <ele>137</ele>
        <time>2014-08-31T09:22:55Z</time>
      </trkpt>
      <trkpt lat="48.79026" lon="2.19725">
        <ele>137</ele>
        <time>2014-08-31T09:23:06Z</time>
      </trkpt>
      <trkpt lat="48.79027" lon="2.19745">
        <ele>136</ele>
        <time>2014-08-31T09:23:13Z</time>
      </trkpt>
      <trkpt lat="48.79025" lon="2.19754">
        <ele>137</ele>
        <time>2014-08-31T09:23:17Z</time>
      </trkpt>
      <trkpt lat="48.7902" lon="2.19759">
        <ele>136</ele>
        <time>2014-08-31T09:23:20Z</time>
      </trkpt>
      <trkpt lat="48.79019" lon="2.1977">
        <ele>136</ele>
        <time>2014-08-31T09:23:24Z</time>
      </trkpt>
      <trkpt lat="48.79014" lon="2.19775">
        <ele>135</ele>
        <time>2014-08-31T09:23:27Z</time>
      </trkpt>
      <trkpt lat="48.79013" lon="2.19783">
        <ele>142</ele>
        <time>2014-08-31T09:23:31Z</time>
      </trkpt>
      <trkpt lat="48.79011" lon="2.198">
        <ele>145</ele>
        <time>2014-08-31T09:23:39Z</time>
      </trkpt>
      <trkpt lat="48.79006" lon="2.19804">
        <ele>145</ele>
        <time>2014-08-31T09:23:42Z</time>
      </trkpt>
      <trkpt lat="48.79004" lon="2.19811">
        <ele>145</ele>
        <time>2014-08-31T09:23:45Z</time>
      </trkpt>
      <trkpt lat="48.79003" lon="2.19821">
        <ele>149</ele>
        <time>2014-08-31T09:23:49Z</time>
      </trkpt>
      <trkpt lat="48.78998" lon="2.19827">
        <ele>153</ele>
        <time>2014-08-31T09:23:53Z</time>
      </trkpt>
      <trkpt lat="48.78997" lon="2.19835">
        <ele>156</ele>
        <time>2014-08-31T09:23:57Z</time>
      </trkpt>
      <trkpt lat="48.78992" lon="2.19851">
        <ele>152</ele>
        <time>2014-08-31T09:24:05Z</time>
      </trkpt>
      <trkpt lat="48.78995" lon="2.1986">
        <ele>151</ele>
        <time>2014-08-31T09:24:08Z</time>
      </trkpt>
      <trkpt lat="48.78993" lon="2.19877">
        <ele>147</ele>
        <time>2014-08-31T09:24:14Z</time>
      </trkpt>
      <trkpt lat="48.78987" lon="2.19894">
        <ele>145</ele>
        <time>2014-08-31T09:24:20Z</time>
      </trkpt>
      <trkpt lat="48.7898" lon="2.19909">
        <ele>136</ele>
        <time>2014-08-31T09:24:28Z</time>
      </trkpt>
      <trkpt lat="48.7898" lon="2.19919">
        <ele>134</ele>
        <time>2014-08-31T09:24:32Z</time>
      </trkpt>
      <trkpt lat="48.78976" lon="2.19925">
        <ele>136</ele>
        <time>2014-08-31T09:24:35Z</time>
      </trkpt>
      <trkpt lat="48.78966" lon="2.19979">
        <ele>137</ele>
        <time>2014-08-31T09:24:58Z</time>
      </trkpt>
      <trkpt lat="48.78964" lon="2.19996">
        <ele>137</ele>
        <time>2014-08-31T09:25:05Z</time>
      </trkpt>
      <trkpt lat="48.78968" lon="2.20004">
        <ele>140</ele>
        <time>2014-08-31T09:25:09Z</time>
      </trkpt>
      <trkpt lat="48.78983" lon="2.20013">
        <ele>139</ele>
        <time>2014-08-31T09:25:15Z</time>
      </trkpt>
      <trkpt lat="48.78987" lon="2.20016">
        <ele>142</ele>
        <time>2014-08-31T09:25:17Z</time>
      </trkpt>
      <trkpt lat="48.78991" lon="2.20019">
        <ele>144</ele>
        <time>2014-08-31T09:25:19Z</time>
      </trkpt>
      <trkpt lat="48.79003" lon="2.20025">
        <ele>148</ele>
        <time>2014-08-31T09:25:25Z</time>
      </trkpt>
      <trkpt lat="48.7905" lon="2.20039">
        <ele>148</ele>
        <time>2014-08-31T09:25:55Z</time>
      </trkpt>
      <trkpt lat="48.79069" lon="2.20036">
        <ele>149</ele>
        <time>2014-08-31T09:26:07Z</time>
      </trkpt>
      <trkpt lat="48.79081" lon="2.2004">
        <ele>151</ele>
        <time>2014-08-31T09:26:16Z</time>
      </trkpt>
      <trkpt lat="48.79114" lon="2.20044">
        <ele>150</ele>
        <time>2014-08-31T09:26:37Z</time>
      </trkpt>
      <trkpt lat="48.79169" lon="2.20051">
        <ele>143</ele>
        <time>2014-08-31T09:27:09Z</time>
      </trkpt>
      <trkpt lat="48.7922" lon="2.20051">
        <ele>141</ele>
        <time>2014-08-31T09:27:39Z</time>
      </trkpt>
      <trkpt lat="48.79258" lon="2.20054">
        <ele>139</ele>
        <time>2014-08-31T09:28:06Z</time>
      </trkpt>
      <trkpt lat="48.79266" lon="2.20045">
        <ele>137</ele>
        <time>2014-08-31T09:28:16Z</time>
      </trkpt>
      <trkpt lat="48.79275" lon="2.20044">
        <ele>138</ele>
        <time>2014-08-31T09:28:19Z</time>
      </trkpt>
      <trkpt lat="48.7928" lon="2.20043">
        <ele>140</ele>
        <time>2014-08-31T09:28:21Z</time>
      </trkpt>
      <trkpt lat="48.79285" lon="2.20045">
        <ele>142</ele>
        <time>2014-08-31T09:28:24Z</time>
      </trkpt>
      <trkpt lat="48.79306" lon="2.20048">
        <ele>142</ele>
        <time>2014-08-31T09:28:39Z</time>
      </trkpt>
      <trkpt lat="48.79311" lon="2.20052">
        <ele>144</ele>
        <time>2014-08-31T09:28:43Z</time>
      </trkpt>
      <trkpt lat="48.79358" lon="2.20051">
        <ele>142</ele>
        <time>2014-08-31T09:29:13Z</time>
      </trkpt>
      <trkpt lat="48.7938" lon="2.20065">
        <ele>132</ele>
        <time>2014-08-31T09:29:25Z</time>
      </trkpt>
      <trkpt lat="48.79387" lon="2.20078">
        <ele>129</ele>
        <time>2014-08-31T09:29:34Z</time>
      </trkpt>
      <trkpt lat="48.794" lon="2.20097">
        <ele>130</ele>
        <time>2014-08-31T09:29:45Z</time>
      </trkpt>
      <trkpt lat="48.79406" lon="2.20111">
        <ele>132</ele>
        <time>2014-08-31T09:29:52Z</time>
      </trkpt>
      <trkpt lat="48.79411" lon="2.20127">
        <ele>138</ele>
        <time>2014-08-31T09:29:59Z</time>
      </trkpt>
      <trkpt lat="48.79455" lon="2.20159">
        <ele>132</ele>
        <time>2014-08-31T09:30:31Z</time>
      </trkpt>
      <trkpt lat="48.7949" lon="2.20177">
        <ele>123</ele>
        <time>2014-08-31T09:31:01Z</time>
      </trkpt>
      <trkpt lat="48.79514" lon="2.20196">
        <ele>124</ele>
        <time>2014-08-31T09:31:24Z</time>
      </trkpt>
      <trkpt lat="48.79518" lon="2.20209">
        <ele>123</ele>
        <time>2014-08-31T09:31:36Z</time>
      </trkpt>
      <trkpt lat="48.79527" lon="2.20218">
        <ele>119</ele>
        <time>2014-08-31T09:31:44Z</time>
      </trkpt>
      <trkpt lat="48.79529" lon="2.20226">
        <ele>121</ele>
        <time>2014-08-31T09:31:48Z</time>
      </trkpt>
      <trkpt lat="48.79533" lon="2.20232">
        <ele>122</ele>
        <time>2014-08-31T09:31:52Z</time>
      </trkpt>
      <trkpt lat="48.7953" lon="2.20244">
        <ele>134</ele>
        <time>2014-08-31T09:32:04Z</time>
      </trkpt>
      <trkpt lat="48.79537" lon="2.20257">
        <ele>134</ele>
        <time>2014-08-31T09:32:16Z</time>
      </trkpt>
      <trkpt lat="48.7955" lon="2.20283">
        <ele>138</ele>
        <time>2014-08-31T09:32:38Z</time>
      </trkpt>
      <trkpt lat="48.79555" lon="2.2029">
        <ele>140</ele>
        <time>2014-08-31T09:32:42Z</time>
      </trkpt>
      <trkpt lat="48.79558" lon="2.20298">
        <ele>144</ele>
        <time>2014-08-31T09:32:48Z</time>
      </trkpt>
      <trkpt lat="48.7956" lon="2.20305">
        <ele>148</ele>
        <time>2014-08-31T09:32:52Z</time>
      </trkpt>
      <trkpt lat="48.79566" lon="2.20319">
        <ele>149</ele>
        <time>2014-08-31T09:33:00Z</time>
      </trkpt>
      <trkpt lat="48.79567" lon="2.20327">
        <ele>148</ele>
        <time>2014-08-31T09:33:05Z</time>
      </trkpt>
      <trkpt lat="48.79572" lon="2.2034">
        <ele>154</ele>
        <time>2014-08-31T09:33:15Z</time>
      </trkpt>
      <trkpt lat="48.79573" lon="2.20347">
        <ele>156</ele>
        <time>2014-08-31T09:33:20Z</time>
      </trkpt>
      <trkpt lat="48.79579" lon="2.2036">
        <ele>159</ele>
        <time>2014-08-31T09:33:30Z</time>
      </trkpt>
      <trkpt lat="48.79582" lon="2.20365">
        <ele>162</ele>
        <time>2014-08-31T09:33:34Z</time>
      </trkpt>
      <trkpt lat="48.79585" lon="2.20372">
        <ele>164</ele>
        <time>2014-08-31T09:33:39Z</time>
      </trkpt>
      <trkpt lat="48.796" lon="2.20406">
        <ele>163</ele>
        <time>2014-08-31T09:34:03Z</time>
      </trkpt>
      <trkpt lat="48.79604" lon="2.20422">
        <ele>165</ele>
        <time>2014-08-31T09:34:14Z</time>
      </trkpt>
      <trkpt lat="48.79612" lon="2.20464">
        <ele>167</ele>
        <time>2014-08-31T09:34:45Z</time>
      </trkpt>
      <trkpt lat="48.79616" lon="2.20472">
        <ele>167</ele>
        <time>2014-08-31T09:34:49Z</time>
      </trkpt>
      <trkpt lat="48.79617" lon="2.2048">
        <ele>169</ele>
        <time>2014-08-31T09:34:53Z</time>
      </trkpt>
      <trkpt lat="48.7962" lon="2.20487">
        <ele>172</ele>
        <time>2014-08-31T09:34:56Z</time>
      </trkpt>
      <trkpt lat="48.79634" lon="2.20517">
        <ele>171</ele>
        <time>2014-08-31T09:35:10Z</time>
      </trkpt>
      <trkpt lat="48.79636" lon="2.20531">
        <ele>171</ele>
        <time>2014-08-31T09:35:18Z</time>
      </trkpt>
      <trkpt lat="48.79644" lon="2.20543">
        <ele>171</ele>
        <time>2014-08-31T09:37:54Z</time>
      </trkpt>
      <trkpt lat="48.79656" lon="2.20572">
        <ele>172</ele>
        <time>2014-08-31T09:38:08Z</time>
      </trkpt>
      <trkpt lat="48.79662" lon="2.20588">
        <ele>173</ele>
        <time>2014-08-31T09:38:16Z</time>
      </trkpt>
      <trkpt lat="48.79683" lon="2.20652">
        <ele>172</ele>
        <time>2014-08-31T09:38:41Z</time>
      </trkpt>
      <trkpt lat="48.79692" lon="2.20686">
        <ele>176</ele>
        <time>2014-08-31T09:38:57Z</time>
      </trkpt>
      <trkpt lat="48.79696" lon="2.20694">
        <ele>179</ele>
        <time>2014-08-31T09:39:00Z</time>
      </trkpt>
      <trkpt lat="48.79698" lon="2.20701">
        <ele>181</ele>
        <time>2014-08-31T09:39:04Z</time>
      </trkpt>
      <trkpt lat="48.79704" lon="2.20717">
        <ele>184</ele>
        <time>2014-08-31T09:39:10Z</time>
      </trkpt>
      <trkpt lat="48.79703" lon="2.20726">
        <ele>176</ele>
        <time>2014-08-31T09:39:14Z</time>
      </trkpt>
      <trkpt lat="48.7971" lon="2.20741">
        <ele>171</ele>
        <time>2014-08-31T09:39:21Z</time>
      </trkpt>
      <trkpt lat="48.79715" lon="2.20748">
        <ele>175</ele>
        <time>2014-08-31T09:39:25Z</time>
      </trkpt>
      <trkpt lat="48.79719" lon="2.20754">
        <ele>177</ele>
        <time>2014-08-31T09:39:28Z</time>
      </trkpt>
      <trkpt lat="48.79722" lon="2.20772">
        <ele>178</ele>
        <time>2014-08-31T09:39:36Z</time>
      </trkpt>
      <trkpt lat="48.79722" lon="2.20806">
        <ele>182</ele>
        <time>2014-08-31T09:39:49Z</time>
      </trkpt>
      <trkpt lat="48.79738" lon="2.20839">
        <ele>182</ele>
        <time>2014-08-31T09:40:07Z</time>
      </trkpt>
      <trkpt lat="48.79744" lon="2.20859">
        <ele>183</ele>
        <time>2014-08-31T09:40:15Z</time>
      </trkpt>
      <trkpt lat="48.79745" lon="2.20864">
        <ele>186</ele>
        <time>2014-08-31T09:40:17Z</time>
      </trkpt>
      <trkpt lat="48.79765" lon="2.20923">
        <ele>174</ele>
        <time>2014-08-31T09:40:47Z</time>
      </trkpt>
      <trkpt lat="48.79777" lon="2.20951">
        <ele>172</ele>
        <time>2014-08-31T09:40:59Z</time>
      </trkpt>
      <trkpt lat="48.79784" lon="2.20959">
        <ele>178</ele>
        <time>2014-08-31T09:41:06Z</time>
      </trkpt>
      <trkpt lat="48.79786" lon="2.20963">
        <ele>184</ele>
        <time>2014-08-31T09:41:12Z</time>
      </trkpt>
      <trkpt lat="48.79789" lon="2.20965">
        <ele>184</ele>
        <time>2014-08-31T09:41:17Z</time>
      </trkpt>
      <trkpt lat="48.79795" lon="2.21008">
        <ele>179</ele>
        <time>2014-08-31T09:41:48Z</time>
      </trkpt>
      <trkpt lat="48.79798" lon="2.21019">
        <ele>182</ele>
        <time>2014-08-31T09:41:52Z</time>
      </trkpt>
      <trkpt lat="48.79801" lon="2.21029">
        <ele>184</ele>
        <time>2014-08-31T09:41:56Z</time>
      </trkpt>
      <trkpt lat="48.79821" lon="2.21098">
        <ele>180</ele>
        <time>2014-08-31T09:42:27Z</time>
      </trkpt>
      <trkpt lat="48.79842" lon="2.21139">
        <ele>176</ele>
        <time>2014-08-31T09:42:45Z</time>
      </trkpt>
      <trkpt lat="48.7984" lon="2.2115">
        <ele>175</ele>
        <time>2014-08-31T09:42:49Z</time>
      </trkpt>
      <trkpt lat="48.79844" lon="2.2116">
        <ele>175</ele>
        <time>2014-08-31T09:42:53Z</time>
      </trkpt>
      <trkpt lat="48.79848" lon="2.21169">
        <ele>179</ele>
        <time>2014-08-31T09:42:57Z</time>
      </trkpt>
      <trkpt lat="48.7985" lon="2.21186">
        <ele>183</ele>
        <time>2014-08-31T09:43:07Z</time>
      </trkpt>
      <trkpt lat="48.79852" lon="2.21194">
        <ele>181</ele>
        <time>2014-08-31T09:43:11Z</time>
      </trkpt>
      <trkpt lat="48.79854" lon="2.21206">
        <ele>182</ele>
        <time>2014-08-31T09:43:17Z</time>
      </trkpt>
      <trkpt lat="48.79857" lon="2.21213">
        <ele>184</ele>
        <time>2014-08-31T09:43:20Z</time>
      </trkpt>
      <trkpt lat="48.79881" lon="2.21275">
        <ele>177</ele>
        <time>2014-08-31T09:43:50Z</time>
      </trkpt>
      <trkpt lat="48.79909" lon="2.2134">
        <ele>168</ele>
        <time>2014-08-31T09:44:23Z</time>
      </trkpt>
      <trkpt lat="48.79911" lon="2.21348">
        <ele>162</ele>
        <time>2014-08-31T09:44:29Z</time>
      </trkpt>
      <trkpt lat="48.79909" lon="2.21356">
        <ele>165</ele>
        <time>2014-08-31T09:44:33Z</time>
      </trkpt>
      <trkpt lat="48.79904" lon="2.21362">
        <ele>172</ele>
        <time>2014-08-31T09:44:36Z</time>
      </trkpt>
      <trkpt lat="48.79888" lon="2.21389">
        <ele>178</ele>
        <time>2014-08-31T09:44:49Z</time>
      </trkpt>
      <trkpt lat="48.79886" lon="2.21408">
        <ele>176</ele>
        <time>2014-08-31T09:44:57Z</time>
      </trkpt>
      <trkpt lat="48.79884" lon="2.21412">
        <ele>174</ele>
        <time>2014-08-31T09:45:00Z</time>
      </trkpt>
      <trkpt lat="48.79881" lon="2.21413">
        <ele>177</ele>
        <time>2014-08-31T09:45:02Z</time>
      </trkpt>
      <trkpt lat="48.79865" lon="2.21434">
        <ele>178</ele>
        <time>2014-08-31T09:45:19Z</time>
      </trkpt>
      <trkpt lat="48.79863" lon="2.21439">
        <ele>182</ele>
        <time>2014-08-31T09:45:22Z</time>
      </trkpt>
      <trkpt lat="48.79861" lon="2.21444">
        <ele>184</ele>
        <time>2014-08-31T09:45:25Z</time>
      </trkpt>
      <trkpt lat="48.79858" lon="2.21447">
        <ele>180</ele>
        <time>2014-08-31T09:45:27Z</time>
      </trkpt>
      <trkpt lat="48.79855" lon="2.21452">
        <ele>179</ele>
        <time>2014-08-31T09:45:30Z</time>
      </trkpt>
      <trkpt lat="48.79855" lon="2.2146">
        <ele>179</ele>
        <time>2014-08-31T09:45:33Z</time>
      </trkpt>
      <trkpt lat="48.79857" lon="2.21467">
        <ele>180</ele>
        <time>2014-08-31T09:45:36Z</time>
      </trkpt>
      <trkpt lat="48.79855" lon="2.21473">
        <ele>183</ele>
        <time>2014-08-31T09:45:39Z</time>
      </trkpt>
      <trkpt lat="48.79828" lon="2.21545">
        <ele>173</ele>
        <time>2014-08-31T09:46:10Z</time>
      </trkpt>
      <trkpt lat="48.79825" lon="2.21553">
        <ele>175</ele>
        <time>2014-08-31T09:46:14Z</time>
      </trkpt>
      <trkpt lat="48.79822" lon="2.21555">
        <ele>175</ele>
        <time>2014-08-31T09:46:16Z</time>
      </trkpt>
      <trkpt lat="48.79821" lon="2.2156">
        <ele>177</ele>
        <time>2014-08-31T09:46:18Z</time>
      </trkpt>
      <trkpt lat="48.7982" lon="2.21576">
        <ele>178</ele>
        <time>2014-08-31T09:46:24Z</time>
      </trkpt>
      <trkpt lat="48.79816" lon="2.21582">
        <ele>179</ele>
        <time>2014-08-31T09:46:29Z</time>
      </trkpt>
      <trkpt lat="48.79816" lon="2.21588">
        <ele>177</ele>
        <time>2014-08-31T09:46:32Z</time>
      </trkpt>
      <trkpt lat="48.79817" lon="2.21599">
        <ele>177</ele>
        <time>2014-08-31T09:46:38Z</time>
      </trkpt>
      <trkpt lat="48.79809" lon="2.2162">
        <ele>177</ele>
        <time>2014-08-31T09:46:47Z</time>
      </trkpt>
      <trkpt lat="48.79805" lon="2.21627">
        <ele>182</ele>
        <time>2014-08-31T09:46:50Z</time>
      </trkpt>
      <trkpt lat="48.79802" lon="2.21634">
        <ele>184</ele>
        <time>2014-08-31T09:46:53Z</time>
      </trkpt>
      <trkpt lat="48.798" lon="2.2165">
        <ele>181</ele>
        <time>2014-08-31T09:47:04Z</time>
      </trkpt>
      <trkpt lat="48.79808" lon="2.21664">
        <ele>175</ele>
        <time>2014-08-31T09:47:08Z</time>
      </trkpt>
      <trkpt lat="48.79807" lon="2.2168">
        <ele>176</ele>
        <time>2014-08-31T09:47:12Z</time>
      </trkpt>
      <trkpt lat="48.79799" lon="2.21767">
        <ele>175</ele>
        <time>2014-08-31T09:47:44Z</time>
      </trkpt>
      <trkpt lat="48.79788" lon="2.21837">
        <ele>166</ele>
        <time>2014-08-31T09:48:14Z</time>
      </trkpt>
      <trkpt lat="48.79788" lon="2.21849">
        <ele>163</ele>
        <time>2014-08-31T09:48:20Z</time>
      </trkpt>
      <trkpt lat="48.79785" lon="2.21853">
        <ele>161</ele>
        <time>2014-08-31T09:48:41Z</time>
      </trkpt>
      <trkpt lat="48.79771" lon="2.21859">
        <ele>162</ele>
        <time>2014-08-31T09:48:46Z</time>
      </trkpt>
      <trkpt lat="48.79765" lon="2.21864">
        <ele>164</ele>
        <time>2014-08-31T09:48:51Z</time>
      </trkpt>
      <trkpt lat="48.7976" lon="2.2187">
        <ele>167</ele>
        <time>2014-08-31T09:48:55Z</time>
      </trkpt>
      <trkpt lat="48.79748" lon="2.21881">
        <ele>170</ele>
        <time>2014-08-31T09:49:01Z</time>
      </trkpt>
      <trkpt lat="48.79745" lon="2.21886">
        <ele>173</ele>
        <time>2014-08-31T09:49:03Z</time>
      </trkpt>
      <trkpt lat="48.79742" lon="2.2189">
        <ele>175</ele>
        <time>2014-08-31T09:49:05Z</time>
      </trkpt>
      <trkpt lat="48.79734" lon="2.21902">
        <ele>178</ele>
        <time>2014-08-31T09:49:13Z</time>
      </trkpt>
      <trkpt lat="48.79732" lon="2.2192">
        <ele>173</ele>
        <time>2014-08-31T09:49:23Z</time>
      </trkpt>
      <trkpt lat="48.79723" lon="2.21938">
        <ele>168</ele>
        <time>2014-08-31T09:49:33Z</time>
      </trkpt>
      <trkpt lat="48.79723" lon="2.21943">
        <ele>169</ele>
        <time>2014-08-31T09:49:35Z</time>
      </trkpt>
      <trkpt lat="48.79699" lon="2.21986">
        <ele>170</ele>
        <time>2014-08-31T09:49:56Z</time>
      </trkpt>
      <trkpt lat="48.79693" lon="2.21992">
        <ele>168</ele>
        <time>2014-08-31T09:50:00Z</time>
      </trkpt>
      <trkpt lat="48.79664" lon="2.2205">
        <ele>168</ele>
        <time>2014-08-31T09:50:30Z</time>
      </trkpt>
      <trkpt lat="48.79661" lon="2.22054">
        <ele>170</ele>
        <time>2014-08-31T09:50:32Z</time>
      </trkpt>
      <trkpt lat="48.79658" lon="2.22055">
        <ele>172</ele>
        <time>2014-08-31T09:50:34Z</time>
      </trkpt>
      <trkpt lat="48.79657" lon="2.22058">
        <ele>172</ele>
        <time>2014-08-31T09:50:37Z</time>
      </trkpt>
      <trkpt lat="48.79653" lon="2.22086">
        <ele>171</ele>
        <time>2014-08-31T09:50:53Z</time>
      </trkpt>
      <trkpt lat="48.79652" lon="2.2209">
        <ele>174</ele>
        <time>2014-08-31T09:50:55Z</time>
      </trkpt>
      <trkpt lat="48.7965" lon="2.22094">
        <ele>173</ele>
        <time>2014-08-31T09:50:58Z</time>
      </trkpt>
      <trkpt lat="48.79652" lon="2.22103">
        <ele>170</ele>
        <time>2014-08-31T09:51:04Z</time>
      </trkpt>
      <trkpt lat="48.79651" lon="2.22113">
        <ele>169</ele>
        <time>2014-08-31T09:51:12Z</time>
      </trkpt>
      <trkpt lat="48.79645" lon="2.22122">
        <ele>169</ele>
        <time>2014-08-31T09:51:20Z</time>
      </trkpt>
      <trkpt lat="48.79644" lon="2.22126">
        <ele>172</ele>
        <time>2014-08-31T09:51:23Z</time>
      </trkpt>
      <trkpt lat="48.79647" lon="2.22144">
        <ele>171</ele>
        <time>2014-08-31T09:51:31Z</time>
      </trkpt>
      <trkpt lat="48.79642" lon="2.22181">
        <ele>171</ele>
        <time>2014-08-31T09:51:49Z</time>
      </trkpt>
      <trkpt lat="48.79637" lon="2.22185">
        <ele>175</ele>
        <time>2014-08-31T09:51:56Z</time>
      </trkpt>
      <trkpt lat="48.79612" lon="2.22239">
        <ele>167</ele>
        <time>2014-08-31T09:52:26Z</time>
      </trkpt>
      <trkpt lat="48.79609" lon="2.22246">
        <ele>169</ele>
        <time>2014-08-31T09:52:31Z</time>
      </trkpt>
      <trkpt lat="48.79598" lon="2.2226">
        <ele>172</ele>
        <time>2014-08-31T09:52:39Z</time>
      </trkpt>
      <trkpt lat="48.79595" lon="2.22275">
        <ele>172</ele>
        <time>2014-08-31T09:52:52Z</time>
      </trkpt>
      <trkpt lat="48.79588" lon="2.22289">
        <ele>171</ele>
        <time>2014-08-31T09:53:12Z</time>
      </trkpt>
      <trkpt lat="48.79571" lon="2.22303">
        <ele>171</ele>
        <time>2014-08-31T09:53:25Z</time>
      </trkpt>
      <trkpt lat="48.79564" lon="2.2231">
        <ele>167</ele>
        <time>2014-08-31T09:53:44Z</time>
      </trkpt>
      <trkpt lat="48.79562" lon="2.22312">
        <ele>165</ele>
        <time>2014-08-31T09:53:50Z</time>
      </trkpt>
      <trkpt lat="48.7956" lon="2.22317">
        <ele>162</ele>
        <time>2014-08-31T09:54:16Z</time>
      </trkpt>
      <trkpt lat="48.79556" lon="2.2232">
        <ele>165</ele>
        <time>2014-08-31T09:54:18Z</time>
      </trkpt>
      <trkpt lat="48.79526" lon="2.22364">
        <ele>170</ele>
        <time>2014-08-31T09:54:33Z</time>
      </trkpt>
      <trkpt lat="48.7952" lon="2.22375">
        <ele>173</ele>
        <time>2014-08-31T09:54:37Z</time>
      </trkpt>
      <trkpt lat="48.79507" lon="2.22384">
        <ele>176</ele>
        <time>2014-08-31T09:54:44Z</time>
      </trkpt>
      <trkpt lat="48.79505" lon="2.22385">
        <ele>178</ele>
        <time>2014-08-31T09:54:46Z</time>
      </trkpt>
      <trkpt lat="48.79496" lon="2.22383">
        <ele>175</ele>
        <time>2014-08-31T09:54:54Z</time>
      </trkpt>
      <trkpt lat="48.79495" lon="2.2238">
        <ele>173</ele>
        <time>2014-08-31T09:54:56Z</time>
      </trkpt>
      <trkpt lat="48.79491" lon="2.22375">
        <ele>171</ele>
        <time>2014-08-31T09:55:00Z</time>
      </trkpt>
      <trkpt lat="48.79475" lon="2.2237">
        <ele>167</ele>
        <time>2014-08-31T09:55:10Z</time>
      </trkpt>
      <trkpt lat="48.79473" lon="2.22367">
        <ele>168</ele>
        <time>2014-08-31T09:55:12Z</time>
      </trkpt>
      <trkpt lat="48.79471" lon="2.22365">
        <ele>167</ele>
        <time>2014-08-31T09:55:14Z</time>
      </trkpt>
      <trkpt lat="48.79464" lon="2.22364">
        <ele>164</ele>
        <time>2014-08-31T09:55:18Z</time>
      </trkpt>
      <trkpt lat="48.79457" lon="2.22359">
        <ele>163</ele>
        <time>2014-08-31T09:55:23Z</time>
      </trkpt>
      <trkpt lat="48.79432" lon="2.22349">
        <ele>167</ele>
        <time>2014-08-31T09:55:35Z</time>
      </trkpt>
      <trkpt lat="48.79425" lon="2.22346">
        <ele>174</ele>
        <time>2014-08-31T09:55:41Z</time>
      </trkpt>
      <trkpt lat="48.79421" lon="2.22341">
        <ele>173</ele>
        <time>2014-08-31T09:55:45Z</time>
      </trkpt>
      <trkpt lat="48.7942" lon="2.22337">
        <ele>173</ele>
        <time>2014-08-31T09:55:47Z</time>
      </trkpt>
      <trkpt lat="48.7939" lon="2.2228">
        <ele>161</ele>
        <time>2014-08-31T09:56:17Z</time>
      </trkpt>
      <trkpt lat="48.7936" lon="2.22238">
        <ele>162</ele>
        <time>2014-08-31T09:56:45Z</time>
      </trkpt>
      <trkpt lat="48.79348" lon="2.22236">
        <ele>162</ele>
        <time>2014-08-31T09:56:51Z</time>
      </trkpt>
      <trkpt lat="48.79297" lon="2.22234">
        <ele>159</ele>
        <time>2014-08-31T09:57:21Z</time>
      </trkpt>
      <trkpt lat="48.79286" lon="2.22234">
        <ele>159</ele>
        <time>2014-08-31T09:57:27Z</time>
      </trkpt>
      <trkpt lat="48.79283" lon="2.22234">
        <ele>161</ele>
        <time>2014-08-31T09:57:29Z</time>
      </trkpt>
      <trkpt lat="48.7926" lon="2.22243">
        <ele>160</ele>
        <time>2014-08-31T09:57:41Z</time>
      </trkpt>
      <trkpt lat="48.79251" lon="2.22252">
        <ele>165</ele>
        <time>2014-08-31T09:57:57Z</time>
      </trkpt>
      <trkpt lat="48.7923" lon="2.22274">
        <ele>169</ele>
        <time>2014-08-31T09:58:09Z</time>
      </trkpt>
      <trkpt lat="48.79203" lon="2.2234">
        <ele>171</ele>
        <time>2014-08-31T09:58:40Z</time>
      </trkpt>
      <trkpt lat="48.79194" lon="2.22357">
        <ele>161</ele>
        <time>2014-08-31T09:58:54Z</time>
      </trkpt>
      <trkpt lat="48.79183" lon="2.22367">
        <ele>163</ele>
        <time>2014-08-31T09:59:00Z</time>
      </trkpt>
      <trkpt lat="48.79179" lon="2.22375">
        <ele>167</ele>
        <time>2014-08-31T09:59:04Z</time>
      </trkpt>
      <trkpt lat="48.7918" lon="2.2238">
        <ele>170</ele>
        <time>2014-08-31T09:59:06Z</time>
      </trkpt>
      <trkpt lat="48.79177" lon="2.22389">
        <ele>170</ele>
        <time>2014-08-31T09:59:12Z</time>
      </trkpt>
      <trkpt lat="48.79147" lon="2.22419">
        <ele>171</ele>
        <time>2014-08-31T09:59:34Z</time>
      </trkpt>
      <trkpt lat="48.79144" lon="2.22424">
        <ele>173</ele>
        <time>2014-08-31T09:59:36Z</time>
      </trkpt>
      <trkpt lat="48.79141" lon="2.22429">
        <ele>175</ele>
        <time>2014-08-31T09:59:38Z</time>
      </trkpt>
      <trkpt lat="48.79133" lon="2.22442">
        <ele>177</ele>
        <time>2014-08-31T09:59:45Z</time>
      </trkpt>
      <trkpt lat="48.79132" lon="2.2245">
        <ele>175</ele>
        <time>2014-08-31T09:59:49Z</time>
      </trkpt>
      <trkpt lat="48.79123" lon="2.22459">
        <ele>177</ele>
        <time>2014-08-31T10:00:00Z</time>
      </trkpt>
      <trkpt lat="48.79108" lon="2.22466">
        <ele>180</ele>
        <time>2014-08-31T10:00:06Z</time>
      </trkpt>
      <trkpt lat="48.79102" lon="2.22481">
        <ele>179</ele>
        <time>2014-08-31T10:00:12Z</time>
      </trkpt>
      <trkpt lat="48.79094" lon="2.22505">
        <ele>175</ele>
        <time>2014-08-31T10:00:27Z</time>
      </trkpt>
      <trkpt lat="48.79076" lon="2.22519">
        <ele>174</ele>
        <time>2014-08-31T10:00:41Z</time>
      </trkpt>
      <trkpt lat="48.79066" lon="2.2254">
        <ele>181</ele>
        <time>2014-08-31T10:00:49Z</time>
      </trkpt>
      <trkpt lat="48.79063" lon="2.22549">
        <ele>182</ele>
        <time>2014-08-31T10:00:53Z</time>
      </trkpt>
      <trkpt lat="48.79061" lon="2.2256">
        <ele>184</ele>
        <time>2014-08-31T10:00:57Z</time>
      </trkpt>
      <trkpt lat="48.79055" lon="2.22625">
        <ele>175</ele>
        <time>2014-08-31T10:01:25Z</time>
      </trkpt>
      <trkpt lat="48.79058" lon="2.22633">
        <ele>175</ele>
        <time>2014-08-31T10:01:29Z</time>
      </trkpt>
      <trkpt lat="48.79058" lon="2.22639">
        <ele>175</ele>
        <time>2014-08-31T10:01:31Z</time>
      </trkpt>
      <trkpt lat="48.79053" lon="2.2265">
        <ele>177</ele>
        <time>2014-08-31T10:01:35Z</time>
      </trkpt>
      <trkpt lat="48.79051" lon="2.22655">
        <ele>179</ele>
        <time>2014-08-31T10:01:37Z</time>
      </trkpt>
      <trkpt lat="48.79049" lon="2.22666">
        <ele>182</ele>
        <time>2014-08-31T10:01:41Z</time>
      </trkpt>
      <trkpt lat="48.79046" lon="2.22681">
        <ele>185</ele>
        <time>2014-08-31T10:01:47Z</time>
      </trkpt>
      <trkpt lat="48.79048" lon="2.22691">
        <ele>184</ele>
        <time>2014-08-31T10:01:51Z</time>
      </trkpt>
      <trkpt lat="48.79045" lon="2.22747">
        <ele>185</ele>
        <time>2014-08-31T10:02:14Z</time>
      </trkpt>
      <trkpt lat="48.79045" lon="2.2275">
        <ele>185</ele>
        <time>2014-08-31T10:02:17Z</time>
      </trkpt>
      <trkpt lat="48.79044" lon="2.22755">
        <ele>189</ele>
        <time>2014-08-31T10:02:20Z</time>
      </trkpt>
      <trkpt lat="48.79036" lon="2.22781">
        <ele>190</ele>
        <time>2014-08-31T10:02:33Z</time>
      </trkpt>
      <trkpt lat="48.79024" lon="2.22856">
        <ele>188</ele>
        <time>2014-08-31T10:03:03Z</time>
      </trkpt>
      <trkpt lat="48.79023" lon="2.22861">
        <ele>186</ele>
        <time>2014-08-31T10:03:05Z</time>
      </trkpt>
      <trkpt lat="48.79016" lon="2.22938">
        <ele>181</ele>
        <time>2014-08-31T10:03:36Z</time>
      </trkpt>
      <trkpt lat="48.79012" lon="2.23008">
        <ele>176</ele>
        <time>2014-08-31T10:04:06Z</time>
      </trkpt>
      <trkpt lat="48.79013" lon="2.23019">
        <ele>175</ele>
        <time>2014-08-31T10:04:10Z</time>
      </trkpt>
      <trkpt lat="48.79008" lon="2.2304">
        <ele>176</ele>
        <time>2014-08-31T10:04:20Z</time>
      </trkpt>
      <trkpt lat="48.79001" lon="2.23067">
        <ele>178</ele>
        <time>2014-08-31T10:04:33Z</time>
      </trkpt>
      <trkpt lat="48.78998" lon="2.23069">
        <ele>178</ele>
        <time>2014-08-31T10:04:35Z</time>
      </trkpt>
      <trkpt lat="48.78996" lon="2.23071">
        <ele>181</ele>
        <time>2014-08-31T10:04:37Z</time>
      </trkpt>
      <trkpt lat="48.7899" lon="2.23102">
        <ele>176</ele>
        <time>2014-08-31T10:04:51Z</time>
      </trkpt>
      <trkpt lat="48.78986" lon="2.23108">
        <ele>178</ele>
        <time>2014-08-31T10:04:54Z</time>
      </trkpt>
      <trkpt lat="48.78979" lon="2.23117">
        <ele>178</ele>
        <time>2014-08-31T10:04:59Z</time>
      </trkpt>
      <trkpt lat="48.78976" lon="2.23133">
        <ele>176</ele>
        <time>2014-08-31T10:05:06Z</time>
      </trkpt>
      <trkpt lat="48.78973" lon="2.23137">
        <ele>177</ele>
        <time>2014-08-31T10:05:08Z</time>
      </trkpt>
      <trkpt lat="48.7897" lon="2.23141">
        <ele>181</ele>
        <time>2014-08-31T10:05:10Z</time>
      </trkpt>
      <trkpt lat="48.78962" lon="2.23161">
        <ele>183</ele>
        <time>2014-08-31T10:05:24Z</time>
      </trkpt>
      <trkpt lat="48.7896" lon="2.23169">
        <ele>185</ele>
        <time>2014-08-31T10:05:27Z</time>
      </trkpt>
      <trkpt lat="48.78958" lon="2.23176">
        <ele>187</ele>
        <time>2014-08-31T10:05:29Z</time>
      </trkpt>
      <trkpt lat="48.78942" lon="2.23213">
        <ele>180</ele>
        <time>2014-08-31T10:05:44Z</time>
      </trkpt>
      <trkpt lat="48.78938" lon="2.23214">
        <ele>177</ele>
        <time>2014-08-31T10:05:50Z</time>
      </trkpt>
      <trkpt lat="48.78935" lon="2.23219">
        <ele>180</ele>
        <time>2014-08-31T10:05:53Z</time>
      </trkpt>
      <trkpt lat="48.78931" lon="2.23224">
        <ele>183</ele>
        <time>2014-08-31T10:05:55Z</time>
      </trkpt>
      <trkpt lat="48.78919" lon="2.23304">
        <ele>174</ele>
        <time>2014-08-31T10:06:25Z</time>
      </trkpt>
      <trkpt lat="48.7891" lon="2.23333">
        <ele>174</ele>
        <time>2014-08-31T10:06:41Z</time>
      </trkpt>
      <trkpt lat="48.78908" lon="2.23337">
        <ele>177</ele>
        <time>2014-08-31T10:06:44Z</time>
      </trkpt>
      <trkpt lat="48.78905" lon="2.2334">
        <ele>180</ele>
        <time>2014-08-31T10:06:46Z</time>
      </trkpt>
      <trkpt lat="48.78901" lon="2.23351">
        <ele>181</ele>
        <time>2014-08-31T10:06:51Z</time>
      </trkpt>
      <trkpt lat="48.78898" lon="2.23357">
        <ele>185</ele>
        <time>2014-08-31T10:06:54Z</time>
      </trkpt>
      <trkpt lat="48.78895" lon="2.23361">
        <ele>192</ele>
        <time>2014-08-31T10:06:57Z</time>
      </trkpt>
      <trkpt lat="48.78893" lon="2.23367">
        <ele>196</ele>
        <time>2014-08-31T10:07:00Z</time>
      </trkpt>
      <trkpt lat="48.78891" lon="2.23387">
        <ele>199</ele>
        <time>2014-08-31T10:07:09Z</time>
      </trkpt>
      <trkpt lat="48.7888" lon="2.23414">
        <ele>193</ele>
        <time>2014-08-31T10:07:20Z</time>
      </trkpt>
      <trkpt lat="48.78882" lon="2.2343">
        <ele>188</ele>
        <time>2014-08-31T10:07:27Z</time>
      </trkpt>
      <trkpt lat="48.78887" lon="2.23435">
        <ele>184</ele>
        <time>2014-08-31T10:07:30Z</time>
      </trkpt>
      <trkpt lat="48.78899" lon="2.2345">
        <ele>182</ele>
        <time>2014-08-31T10:07:40Z</time>
      </trkpt>
      <trkpt lat="48.78898" lon="2.23465">
        <ele>180</ele>
        <time>2014-08-31T10:07:47Z</time>
      </trkpt>
      <trkpt lat="48.78895" lon="2.23474">
        <ele>188</ele>
        <time>2014-08-31T10:07:53Z</time>
      </trkpt>
      <trkpt lat="48.78893" lon="2.2348">
        <ele>191</ele>
        <time>2014-08-31T10:07:56Z</time>
      </trkpt>
      <trkpt lat="48.78889" lon="2.23485">
        <ele>192</ele>
        <time>2014-08-31T10:07:59Z</time>
      </trkpt>
      <trkpt lat="48.78889" lon="2.23496">
        <ele>202</ele>
        <time>2014-08-31T10:08:08Z</time>
      </trkpt>
      <trkpt lat="48.78886" lon="2.23502">
        <ele>202</ele>
        <time>2014-08-31T10:08:11Z</time>
      </trkpt>
      <trkpt lat="48.78882" lon="2.23551">
        <ele>203</ele>
        <time>2014-08-31T10:08:33Z</time>
      </trkpt>
      <trkpt lat="48.78885" lon="2.23554">
        <ele>198</ele>
        <time>2014-08-31T10:08:37Z</time>
      </trkpt>
      <trkpt lat="48.78885" lon="2.23559">
        <ele>197</ele>
        <time>2014-08-31T10:08:40Z</time>
      </trkpt>
      <trkpt lat="48.78887" lon="2.23645">
        <ele>194</ele>
        <time>2014-08-31T10:09:10Z</time>
      </trkpt>
      <trkpt lat="48.78898" lon="2.23654">
        <ele>185</ele>
        <time>2014-08-31T10:09:19Z</time>
      </trkpt>
      <trkpt lat="48.78903" lon="2.23654">
        <ele>176</ele>
        <time>2014-08-31T10:09:28Z</time>
      </trkpt>
      <trkpt lat="48.78904" lon="2.23657">
        <ele>174</ele>
        <time>2014-08-31T10:09:33Z</time>
      </trkpt>
      <trkpt lat="48.78902" lon="2.2366">
        <ele>175</ele>
        <time>2014-08-31T10:09:35Z</time>
      </trkpt>
      <trkpt lat="48.789" lon="2.23665">
        <ele>177</ele>
        <time>2014-08-31T10:09:38Z</time>
      </trkpt>
      <trkpt lat="48.78902" lon="2.23703">
        <ele>167</ele>
        <time>2014-08-31T10:09:55Z</time>
      </trkpt>
      <trkpt lat="48.78911" lon="2.23721">
        <ele>163</ele>
        <time>2014-08-31T10:10:04Z</time>
      </trkpt>
      <trkpt lat="48.78929" lon="2.23731">
        <ele>166</ele>
        <time>2014-08-31T10:10:16Z</time>
      </trkpt>
      <trkpt lat="48.78932" lon="2.2373">
        <ele>166</ele>
        <time>2014-08-31T10:10:18Z</time>
      </trkpt>
      <trkpt lat="48.78967" lon="2.23725">
        <ele>165</ele>
        <time>2014-08-31T10:10:41Z</time>
      </trkpt>
      <trkpt lat="48.78984" lon="2.23726">
        <ele>169</ele>
        <time>2014-08-31T10:10:56Z</time>
      </trkpt>
      <trkpt lat="48.79004" lon="2.23723">
        <ele>170</ele>
        <time>2014-08-31T10:11:11Z</time>
      </trkpt>
      <trkpt lat="48.79052" lon="2.23711">
        <ele>164</ele>
        <time>2014-08-31T10:11:41Z</time>
      </trkpt>
      <trkpt lat="48.79084" lon="2.23703">
        <ele>164</ele>
        <time>2014-08-31T10:12:04Z</time>
      </trkpt>
      <trkpt lat="48.79125" lon="2.23689">
        <ele>154</ele>
        <time>2014-08-31T10:12:36Z</time>
      </trkpt>
      <trkpt lat="48.7913" lon="2.23688">
        <ele>152</ele>
        <time>2014-08-31T10:12:40Z</time>
      </trkpt>
      <trkpt lat="48.79155" lon="2.23678">
        <ele>152</ele>
        <time>2014-08-31T10:12:53Z</time>
      </trkpt>
      <trkpt lat="48.79208" lon="2.23667">
        <ele>142</ele>
        <time>2014-08-31T10:13:23Z</time>
      </trkpt>
      <trkpt lat="48.79236" lon="2.23653">
        <ele>136</ele>
        <time>2014-08-31T10:13:45Z</time>
      </trkpt>
      <trkpt lat="48.79236" lon="2.23671">
        <ele>138</ele>
        <time>2014-08-31T10:13:59Z</time>
      </trkpt>
      <trkpt lat="48.79236" lon="2.23688">
        <ele>144</ele>
        <time>2014-08-31T10:14:15Z</time>
      </trkpt>
      <trkpt lat="48.79237" lon="2.23706">
        <ele>147</ele>
        <time>2014-08-31T10:14:24Z</time>
      </trkpt>
      <trkpt lat="48.79235" lon="2.23715">
        <ele>149</ele>
        <time>2014-08-31T10:14:27Z</time>
      </trkpt>
      <trkpt lat="48.79235" lon="2.23723">
        <ele>151</ele>
        <time>2014-08-31T10:14:30Z</time>
      </trkpt>
      <trkpt lat="48.79238" lon="2.23782">
        <ele>141</ele>
        <time>2014-08-31T10:15:01Z</time>
      </trkpt>
      <trkpt lat="48.79239" lon="2.23791">
        <ele>143</ele>
        <time>2014-08-31T10:15:05Z</time>
      </trkpt>
      <trkpt lat="48.79238" lon="2.23795">
        <ele>143</ele>
        <time>2014-08-31T10:15:07Z</time>
      </trkpt>
      <trkpt lat="48.79236" lon="2.23798">
        <ele>144</ele>
        <time>2014-08-31T10:15:09Z</time>
      </trkpt>
      <trkpt lat="48.79235" lon="2.23805">
        <ele>147</ele>
        <time>2014-08-31T10:15:12Z</time>
      </trkpt>
      <trkpt lat="48.79234" lon="2.2381">
        <ele>151</ele>
        <time>2014-08-31T10:15:15Z</time>
      </trkpt>
      <trkpt lat="48.79234" lon="2.23815">
        <ele>153</ele>
        <time>2014-08-31T10:15:18Z</time>
      </trkpt>
      <trkpt lat="48.79244" lon="2.2387">
        <ele>140</ele>
        <time>2014-08-31T10:15:48Z</time>
      </trkpt>
      <trkpt lat="48.79242" lon="2.23885">
        <ele>141</ele>
        <time>2014-08-31T10:15:57Z</time>
      </trkpt>
      <trkpt lat="48.79242" lon="2.23892">
        <ele>144</ele>
        <time>2014-08-31T10:16:01Z</time>
      </trkpt>
      <trkpt lat="48.79244" lon="2.23896">
        <ele>145</ele>
        <time>2014-08-31T10:16:05Z</time>
      </trkpt>
      <trkpt lat="48.79244" lon="2.23911">
        <ele>142</ele>
        <time>2014-08-31T10:16:16Z</time>
      </trkpt>
      <trkpt lat="48.79241" lon="2.23933">
        <ele>137</ele>
        <time>2014-08-31T10:16:22Z</time>
      </trkpt>
      <trkpt lat="48.79243" lon="2.2394">
        <ele>137</ele>
        <time>2014-08-31T10:16:24Z</time>
      </trkpt>
      <trkpt lat="48.79245" lon="2.23949">
        <ele>135</ele>
        <time>2014-08-31T10:16:31Z</time>
      </trkpt>
      <trkpt lat="48.79248" lon="2.23963">
        <ele>143</ele>
        <time>2014-08-31T10:16:42Z</time>
      </trkpt>
      <trkpt lat="48.79248" lon="2.23971">
        <ele>145</ele>
        <time>2014-08-31T10:16:46Z</time>
      </trkpt>
      <trkpt lat="48.79252" lon="2.23987">
        <ele>143</ele>
        <time>2014-08-31T10:16:56Z</time>
      </trkpt>
      <trkpt lat="48.79254" lon="2.24046">
        <ele>139</ele>
        <time>2014-08-31T10:17:27Z</time>
      </trkpt>
      <trkpt lat="48.79253" lon="2.24057">
        <ele>144</ele>
        <time>2014-08-31T10:17:30Z</time>
      </trkpt>
      <trkpt lat="48.79251" lon="2.24064">
        <ele>146</ele>
        <time>2014-08-31T10:17:33Z</time>
      </trkpt>
      <trkpt lat="48.79248" lon="2.24071">
        <ele>151</ele>
        <time>2014-08-31T10:17:38Z</time>
      </trkpt>
      <trkpt lat="48.79248" lon="2.24081">
        <ele>155</ele>
        <time>2014-08-31T10:17:44Z</time>
      </trkpt>
      <trkpt lat="48.79244" lon="2.24097">
        <ele>155</ele>
        <time>2014-08-31T10:17:54Z</time>
      </trkpt>
      <trkpt lat="48.79247" lon="2.24123">
        <ele>155</ele>
        <time>2014-08-31T10:18:28Z</time>
      </trkpt>
      <trkpt lat="48.79249" lon="2.24131">
        <ele>156</ele>
        <time>2014-08-31T10:18:34Z</time>
      </trkpt>
      <trkpt lat="48.79248" lon="2.24141">
        <ele>158</ele>
        <time>2014-08-31T10:18:43Z</time>
      </trkpt>
      <trkpt lat="48.79248" lon="2.2415">
        <ele>159</ele>
        <time>2014-08-31T10:18:47Z</time>
      </trkpt>
      <trkpt lat="48.79255" lon="2.24183">
        <ele>159</ele>
        <time>2014-08-31T10:19:05Z</time>
      </trkpt>
      <trkpt lat="48.79256" lon="2.24198">
        <ele>163</ele>
        <time>2014-08-31T10:19:24Z</time>
      </trkpt>
      <trkpt lat="48.79255" lon="2.24213">
        <ele>164</ele>
        <time>2014-08-31T10:19:38Z</time>
      </trkpt>
      <trkpt lat="48.79256" lon="2.24253">
        <ele>163</ele>
        <time>2014-08-31T10:19:57Z</time>
      </trkpt>
      <trkpt lat="48.79258" lon="2.24274">
        <ele>164</ele>
        <time>2014-08-31T10:20:07Z</time>
      </trkpt>
      <trkpt lat="48.7926" lon="2.24288">
        <ele>166</ele>
        <time>2014-08-31T10:20:18Z</time>
      </trkpt>
      <trkpt lat="48.79256" lon="2.243">
        <ele>169</ele>
        <time>2014-08-31T10:20:25Z</time>
      </trkpt>
      <trkpt lat="48.79255" lon="2.24303">
        <ele>173</ele>
        <time>2014-08-31T10:20:27Z</time>
      </trkpt>
      <trkpt lat="48.79255" lon="2.24309">
        <ele>175</ele>
        <time>2014-08-31T10:20:30Z</time>
      </trkpt>
      <trkpt lat="48.79258" lon="2.24313">
        <ele>170</ele>
        <time>2014-08-31T10:20:33Z</time>
      </trkpt>
      <trkpt lat="48.79263" lon="2.24316">
        <ele>165</ele>
        <time>2014-08-31T10:20:55Z</time>
      </trkpt>
      <trkpt lat="48.79278" lon="2.24304">
        <ele>166</ele>
        <time>2014-08-31T10:21:26Z</time>
      </trkpt>
      <trkpt lat="48.79275" lon="2.24307">
        <ele>172</ele>
        <time>2014-08-31T10:21:42Z</time>
      </trkpt>
      <trkpt lat="48.79272" lon="2.24309">
        <ele>173</ele>
        <time>2014-08-31T10:21:44Z</time>
      </trkpt>
      <trkpt lat="48.7927" lon="2.24311">
        <ele>176</ele>
        <time>2014-08-31T10:21:46Z</time>
      </trkpt>
      <trkpt lat="48.79266" lon="2.24312">
        <ele>179</ele>
        <time>2014-08-31T10:21:49Z</time>
      </trkpt>
      <trkpt lat="48.79263" lon="2.24317">
        <ele>180</ele>
        <time>2014-08-31T10:22:01Z</time>
      </trkpt>
      <trkpt lat="48.79265" lon="2.24332">
        <ele>166</ele>
        <time>2014-08-31T10:24:42Z</time>
      </trkpt>
      <trkpt lat="48.79263" lon="2.24338">
        <ele>168</ele>
        <time>2014-08-31T10:24:51Z</time>
      </trkpt>
      <trkpt lat="48.79251" lon="2.24354">
        <ele>170</ele>
        <time>2014-08-31T10:25:03Z</time>
      </trkpt>
      <trkpt lat="48.79247" lon="2.24357">
        <ele>174</ele>
        <time>2014-08-31T10:25:06Z</time>
      </trkpt>
      <trkpt lat="48.79225" lon="2.24399">
        <ele>170</ele>
        <time>2014-08-31T10:25:32Z</time>
      </trkpt>
      <trkpt lat="48.79201" lon="2.2445">
        <ele>170</ele>
        <time>2014-08-31T10:26:02Z</time>
      </trkpt>
      <trkpt lat="48.79186" lon="2.24512">
        <ele>162</ele>
        <time>2014-08-31T10:26:32Z</time>
      </trkpt>
      <trkpt lat="48.79191" lon="2.24535">
        <ele>163</ele>
        <time>2014-08-31T10:26:43Z</time>
      </trkpt>
      <trkpt lat="48.79193" lon="2.24549">
        <ele>164</ele>
        <time>2014-08-31T10:26:54Z</time>
      </trkpt>
      <trkpt lat="48.79194" lon="2.24554">
        <ele>166</ele>
        <time>2014-08-31T10:26:57Z</time>
      </trkpt>
      <trkpt lat="48.79195" lon="2.24557">
        <ele>164</ele>
        <time>2014-08-31T10:27:01Z</time>
      </trkpt>
      <trkpt lat="48.79196" lon="2.24561">
        <ele>165</ele>
        <time>2014-08-31T10:27:06Z</time>
      </trkpt>
      <trkpt lat="48.79187" lon="2.24611">
        <ele>159</ele>
        <time>2014-08-31T10:27:27Z</time>
      </trkpt>
      <trkpt lat="48.79186" lon="2.24613">
        <ele>162</ele>
        <time>2014-08-31T10:27:29Z</time>
      </trkpt>
      <trkpt lat="48.79183" lon="2.24618">
        <ele>169</ele>
        <time>2014-08-31T10:27:35Z</time>
      </trkpt>
      <trkpt lat="48.79179" lon="2.24623">
        <ele>165</ele>
        <time>2014-08-31T10:27:44Z</time>
      </trkpt>
      <trkpt lat="48.79169" lon="2.24626">
        <ele>166</ele>
        <time>2014-08-31T10:27:52Z</time>
      </trkpt>
      <trkpt lat="48.79167" lon="2.24631">
        <ele>165</ele>
        <time>2014-08-31T10:27:54Z</time>
      </trkpt>
      <trkpt lat="48.79167" lon="2.24635">
        <ele>164</ele>
        <time>2014-08-31T10:27:56Z</time>
      </trkpt>
      <trkpt lat="48.79179" lon="2.24664">
        <ele>159</ele>
        <time>2014-08-31T10:28:18Z</time>
      </trkpt>
      <trkpt lat="48.79201" lon="2.24677">
        <ele>155</ele>
        <time>2014-08-31T10:28:42Z</time>
      </trkpt>
      <trkpt lat="48.79202" lon="2.24681">
        <ele>158</ele>
        <time>2014-08-31T10:28:45Z</time>
      </trkpt>
      <trkpt lat="48.79219" lon="2.24706">
        <ele>158</ele>
        <time>2014-08-31T10:29:07Z</time>
      </trkpt>
      <trkpt lat="48.79222" lon="2.24709">
        <ele>162</ele>
        <time>2014-08-31T10:29:10Z</time>
      </trkpt>
      <trkpt lat="48.79263" lon="2.24725">
        <ele>133</ele>
        <time>2014-08-31T10:29:40Z</time>
      </trkpt>
      <trkpt lat="48.7927" lon="2.24725">
        <ele>133</ele>
        <time>2014-08-31T10:29:44Z</time>
      </trkpt>
      <trkpt lat="48.79271" lon="2.24731">
        <ele>135</ele>
        <time>2014-08-31T10:29:46Z</time>
      </trkpt>
      <trkpt lat="48.79271" lon="2.24736">
        <ele>137</ele>
        <time>2014-08-31T10:29:48Z</time>
      </trkpt>
      <trkpt lat="48.79279" lon="2.24743">
        <ele>141</ele>
        <time>2014-08-31T10:29:55Z</time>
      </trkpt>
      <trkpt lat="48.79291" lon="2.24754">
        <ele>142</ele>
        <time>2014-08-31T10:30:05Z</time>
      </trkpt>
      <trkpt lat="48.79294" lon="2.24756">
        <ele>144</ele>
        <time>2014-08-31T10:30:07Z</time>
      </trkpt>
      <trkpt lat="48.79298" lon="2.24761">
        <ele>147</ele>
        <time>2014-08-31T10:30:11Z</time>
      </trkpt>
      <trkpt lat="48.79304" lon="2.24764">
        <ele>150</ele>
        <time>2014-08-31T10:30:17Z</time>
      </trkpt>
      <trkpt lat="48.79307" lon="2.24766">
        <ele>154</ele>
        <time>2014-08-31T10:30:20Z</time>
      </trkpt>
      <trkpt lat="48.7935" lon="2.24782">
        <ele>137</ele>
        <time>2014-08-31T10:30:52Z</time>
      </trkpt>
      <trkpt lat="48.79354" lon="2.24781">
        <ele>139</ele>
        <time>2014-08-31T10:30:54Z</time>
      </trkpt>
      <trkpt lat="48.79375" lon="2.24793">
        <ele>138</ele>
        <time>2014-08-31T10:31:12Z</time>
      </trkpt>
      <trkpt lat="48.79378" lon="2.2479">
        <ele>136</ele>
        <time>2014-08-31T10:31:20Z</time>
      </trkpt>
      <trkpt lat="48.79381" lon="2.24792">
        <ele>137</ele>
        <time>2014-08-31T10:31:26Z</time>
      </trkpt>
      <trkpt lat="48.79389" lon="2.24795">
        <ele>142</ele>
        <time>2014-08-31T10:31:35Z</time>
      </trkpt>
      <trkpt lat="48.79392" lon="2.248">
        <ele>147</ele>
        <time>2014-08-31T10:31:42Z</time>
      </trkpt>
      <trkpt lat="48.79403" lon="2.24805">
        <ele>147</ele>
        <time>2014-08-31T10:31:52Z</time>
      </trkpt>
      <trkpt lat="48.79406" lon="2.2481">
        <ele>146</ele>
        <time>2014-08-31T10:31:58Z</time>
      </trkpt>
      <trkpt lat="48.79411" lon="2.24811">
        <ele>151</ele>
        <time>2014-08-31T10:32:03Z</time>
      </trkpt>
      <trkpt lat="48.79416" lon="2.24814">
        <ele>156</ele>
        <time>2014-08-31T10:32:08Z</time>
      </trkpt>
      <trkpt lat="48.79428" lon="2.24817">
        <ele>156</ele>
        <time>2014-08-31T10:32:19Z</time>
      </trkpt>
      <trkpt lat="48.79435" lon="2.24826">
        <ele>157</ele>
        <time>2014-08-31T10:32:27Z</time>
      </trkpt>
      <trkpt lat="48.79444" lon="2.24832">
        <ele>157</ele>
        <time>2014-08-31T10:32:36Z</time>
      </trkpt>
      <trkpt lat="48.79446" lon="2.24831">
        <ele>154</ele>
        <time>2014-08-31T10:32:39Z</time>
      </trkpt>
      <trkpt lat="48.7945" lon="2.24833">
        <ele>155</ele>
        <time>2014-08-31T10:32:44Z</time>
      </trkpt>
      <trkpt lat="48.7946" lon="2.24841">
        <ele>155</ele>
        <time>2014-08-31T10:32:55Z</time>
      </trkpt>
      <trkpt lat="48.79466" lon="2.24844">
        <ele>156</ele>
        <time>2014-08-31T10:32:59Z</time>
      </trkpt>
      <trkpt lat="48.79468" lon="2.24846">
        <ele>158</ele>
        <time>2014-08-31T10:33:01Z</time>
      </trkpt>
      <trkpt lat="48.79469" lon="2.24849">
        <ele>160</ele>
        <time>2014-08-31T10:33:03Z</time>
      </trkpt>
      <trkpt lat="48.79475" lon="2.24852">
        <ele>164</ele>
        <time>2014-08-31T10:33:07Z</time>
      </trkpt>
      <trkpt lat="48.79494" lon="2.24861">
        <ele>165</ele>
        <time>2014-08-31T10:33:23Z</time>
      </trkpt>
      <trkpt lat="48.79499" lon="2.24857">
        <ele>164</ele>
        <time>2014-08-31T10:33:35Z</time>
      </trkpt>
      <trkpt lat="48.795" lon="2.24861">
        <ele>162</ele>
        <time>2014-08-31T10:33:39Z</time>
      </trkpt>
      <trkpt lat="48.79504" lon="2.24865">
        <ele>163</ele>
        <time>2014-08-31T10:33:43Z</time>
      </trkpt>
      <trkpt lat="48.79546" lon="2.2489">
        <ele>159</ele>
        <time>2014-08-31T10:34:13Z</time>
      </trkpt>
      <trkpt lat="48.79553" lon="2.24887">
        <ele>158</ele>
        <time>2014-08-31T10:34:16Z</time>
      </trkpt>
      <trkpt lat="48.79556" lon="2.24882">
        <ele>158</ele>
        <time>2014-08-31T10:34:18Z</time>
      </trkpt>
      <trkpt lat="48.79556" lon="2.24878">
        <ele>159</ele>
        <time>2014-08-31T10:34:20Z</time>
      </trkpt>
      <trkpt lat="48.79558" lon="2.24872">
        <ele>164</ele>
        <time>2014-08-31T10:34:23Z</time>
      </trkpt>
      <trkpt lat="48.79561" lon="2.24854">
        <ele>156</ele>
        <time>2014-08-31T10:34:33Z</time>
      </trkpt>
      <trkpt lat="48.7956" lon="2.2485">
        <ele>154</ele>
        <time>2014-08-31T10:34:37Z</time>
      </trkpt>
      <trkpt lat="48.79562" lon="2.2484">
        <ele>153</ele>
        <time>2014-08-31T10:34:43Z</time>
      </trkpt>
      <trkpt lat="48.79564" lon="2.24835">
        <ele>155</ele>
        <time>2014-08-31T10:34:45Z</time>
      </trkpt>
      <trkpt lat="48.79565" lon="2.2483">
        <ele>156</ele>
        <time>2014-08-31T10:34:47Z</time>
      </trkpt>
      <trkpt lat="48.79562" lon="2.24831">
        <ele>151</ele>
        <time>2014-08-31T10:35:08Z</time>
      </trkpt>
      <trkpt lat="48.79563" lon="2.24836">
        <ele>157</ele>
        <time>2014-08-31T10:35:13Z</time>
      </trkpt>
      <trkpt lat="48.79568" lon="2.24837">
        <ele>160</ele>
        <time>2014-08-31T10:36:11Z</time>
      </trkpt>
      <trkpt lat="48.79575" lon="2.24843">
        <ele>154</ele>
        <time>2014-08-31T10:36:32Z</time>
      </trkpt>
      <trkpt lat="48.79577" lon="2.24844">
        <ele>159</ele>
        <time>2014-08-31T10:36:40Z</time>
      </trkpt>
      <trkpt lat="48.79581" lon="2.24847">
        <ele>155</ele>
        <time>2014-08-31T10:36:49Z</time>
      </trkpt>
      <trkpt lat="48.79582" lon="2.24849">
        <ele>153</ele>
        <time>2014-08-31T10:36:54Z</time>
      </trkpt>
      <trkpt lat="48.79591" lon="2.24856">
        <ele>152</ele>
        <time>2014-08-31T10:37:10Z</time>
      </trkpt>
      <trkpt lat="48.79596" lon="2.24857">
        <ele>157</ele>
        <time>2014-08-31T10:37:43Z</time>
      </trkpt>
      <trkpt lat="48.79597" lon="2.2486">
        <ele>159</ele>
        <time>2014-08-31T10:37:48Z</time>
      </trkpt>
      <trkpt lat="48.79605" lon="2.24861">
        <ele>160</ele>
        <time>2014-08-31T10:37:55Z</time>
      </trkpt>
      <trkpt lat="48.79608" lon="2.24865">
        <ele>159</ele>
        <time>2014-08-31T10:37:59Z</time>
      </trkpt>
      <trkpt lat="48.79609" lon="2.24869">
        <ele>158</ele>
        <time>2014-08-31T10:38:03Z</time>
      </trkpt>
      <trkpt lat="48.79612" lon="2.24869">
        <ele>157</ele>
        <time>2014-08-31T10:38:08Z</time>
      </trkpt>
      <trkpt lat="48.79626" lon="2.24853">
        <ele>157</ele>
        <time>2014-08-31T10:38:21Z</time>
      </trkpt>
      <trkpt lat="48.79635" lon="2.24829">
        <ele>163</ele>
        <time>2014-08-31T10:38:35Z</time>
      </trkpt>
      <trkpt lat="48.79643" lon="2.24774">
        <ele>159</ele>
        <time>2014-08-31T10:39:05Z</time>
      </trkpt>
      <trkpt lat="48.79643" lon="2.2477">
        <ele>160</ele>
        <time>2014-08-31T10:39:07Z</time>
      </trkpt>
      <trkpt lat="48.79645" lon="2.24758">
        <ele>160</ele>
        <time>2014-08-31T10:39:13Z</time>
      </trkpt>
      <trkpt lat="48.79648" lon="2.24755">
        <ele>157</ele>
        <time>2014-08-31T10:39:15Z</time>
      </trkpt>
      <trkpt lat="48.79648" lon="2.24742">
        <ele>154</ele>
        <time>2014-08-31T10:39:21Z</time>
      </trkpt>
      <trkpt lat="48.79645" lon="2.24723">
        <ele>155</ele>
        <time>2014-08-31T10:39:29Z</time>
      </trkpt>
      <trkpt lat="48.79646" lon="2.24711">
        <ele>157</ele>
        <time>2014-08-31T10:39:33Z</time>
      </trkpt>
      <trkpt lat="48.79645" lon="2.24708">
        <ele>156</ele>
        <time>2014-08-31T10:39:35Z</time>
      </trkpt>
      <trkpt lat="48.79646" lon="2.24704">
        <ele>156</ele>
        <time>2014-08-31T10:39:37Z</time>
      </trkpt>
      <trkpt lat="48.79652" lon="2.24685">
        <ele>156</ele>
        <time>2014-08-31T10:39:47Z</time>
      </trkpt>
      <trkpt lat="48.79652" lon="2.2468">
        <ele>160</ele>
        <time>2014-08-31T10:39:50Z</time>
      </trkpt>
      <trkpt lat="48.79653" lon="2.24677">
        <ele>163</ele>
        <time>2014-08-31T10:39:53Z</time>
      </trkpt>
      <trkpt lat="48.79654" lon="2.24667">
        <ele>165</ele>
        <time>2014-08-31T10:39:59Z</time>
      </trkpt>
      <trkpt lat="48.79653" lon="2.24663">
        <ele>165</ele>
        <time>2014-08-31T10:40:02Z</time>
      </trkpt>
      <trkpt lat="48.7966" lon="2.246">
        <ele>160</ele>
        <time>2014-08-31T10:40:32Z</time>
      </trkpt>
      <trkpt lat="48.79659" lon="2.24595">
        <ele>160</ele>
        <time>2014-08-31T10:40:34Z</time>
      </trkpt>
      <trkpt lat="48.7966" lon="2.2459">
        <ele>160</ele>
        <time>2014-08-31T10:40:36Z</time>
      </trkpt>
      <trkpt lat="48.79659" lon="2.24565">
        <ele>162</ele>
        <time>2014-08-31T10:40:50Z</time>
      </trkpt>
      <trkpt lat="48.79661" lon="2.24562">
        <ele>160</ele>
        <time>2014-08-31T10:40:53Z</time>
      </trkpt>
      <trkpt lat="48.7966" lon="2.24556">
        <ele>157</ele>
        <time>2014-08-31T10:40:58Z</time>
      </trkpt>
      <trkpt lat="48.79663" lon="2.24546">
        <ele>157</ele>
        <time>2014-08-31T10:41:04Z</time>
      </trkpt>
      <trkpt lat="48.79666" lon="2.24529">
        <ele>155</ele>
        <time>2014-08-31T10:41:13Z</time>
      </trkpt>
      <trkpt lat="48.79668" lon="2.24511">
        <ele>153</ele>
        <time>2014-08-31T10:41:23Z</time>
      </trkpt>
      <trkpt lat="48.79671" lon="2.24503">
        <ele>154</ele>
        <time>2014-08-31T10:41:29Z</time>
      </trkpt>
      <trkpt lat="48.79687" lon="2.24467">
        <ele>154</ele>
        <time>2014-08-31T10:41:50Z</time>
      </trkpt>
      <trkpt lat="48.79689" lon="2.24447">
        <ele>155</ele>
        <time>2014-08-31T10:41:59Z</time>
      </trkpt>
      <trkpt lat="48.79691" lon="2.24439">
        <ele>156</ele>
        <time>2014-08-31T10:42:03Z</time>
      </trkpt>
      <trkpt lat="48.79689" lon="2.24404">
        <ele>152</ele>
        <time>2014-08-31T10:42:19Z</time>
      </trkpt>
      <trkpt lat="48.79662" lon="2.24357">
        <ele>144</ele>
        <time>2014-08-31T10:42:49Z</time>
      </trkpt>
      <trkpt lat="48.7966" lon="2.24351">
        <ele>144</ele>
        <time>2014-08-31T10:42:54Z</time>
      </trkpt>
      <trkpt lat="48.79659" lon="2.24348">
        <ele>146</ele>
        <time>2014-08-31T10:42:59Z</time>
      </trkpt>
      <trkpt lat="48.79641" lon="2.24326">
        <ele>137</ele>
        <time>2014-08-31T10:43:28Z</time>
      </trkpt>
      <trkpt lat="48.79641" lon="2.24316">
        <ele>136</ele>
        <time>2014-08-31T10:43:31Z</time>
      </trkpt>
      <trkpt lat="48.79645" lon="2.24296">
        <ele>136</ele>
        <time>2014-08-31T10:43:36Z</time>
      </trkpt>
      <trkpt lat="48.79643" lon="2.24285">
        <ele>139</ele>
        <time>2014-08-31T10:43:40Z</time>
      </trkpt>
      <trkpt lat="48.7964" lon="2.24283">
        <ele>135</ele>
        <time>2014-08-31T10:43:42Z</time>
      </trkpt>
      <trkpt lat="48.79598" lon="2.24264">
        <ele>134</ele>
        <time>2014-08-31T10:44:13Z</time>
      </trkpt>
      <trkpt lat="48.79589" lon="2.2426">
        <ele>133</ele>
        <time>2014-08-31T10:44:20Z</time>
      </trkpt>
      <trkpt lat="48.79587" lon="2.24255">
        <ele>132</ele>
        <time>2014-08-31T10:44:24Z</time>
      </trkpt>
      <trkpt lat="48.79579" lon="2.24253">
        <ele>133</ele>
        <time>2014-08-31T10:44:28Z</time>
      </trkpt>
      <trkpt lat="48.79568" lon="2.2425">
        <ele>132</ele>
        <time>2014-08-31T10:44:39Z</time>
      </trkpt>
      <trkpt lat="48.79564" lon="2.24252">
        <ele>133</ele>
        <time>2014-08-31T10:44:42Z</time>
      </trkpt>
      <trkpt lat="48.79528" lon="2.24264">
        <ele>129</ele>
        <time>2014-08-31T10:45:12Z</time>
      </trkpt>
      <trkpt lat="48.79523" lon="2.24267">
        <ele>126</ele>
        <time>2014-08-31T10:45:15Z</time>
      </trkpt>
      <trkpt lat="48.79498" lon="2.24271">
        <ele>122</ele>
        <time>2014-08-31T10:45:34Z</time>
      </trkpt>
      <trkpt lat="48.79495" lon="2.24278">
        <ele>122</ele>
        <time>2014-08-31T10:45:37Z</time>
      </trkpt>
      <trkpt lat="48.79485" lon="2.24284">
        <ele>125</ele>
        <time>2014-08-31T10:45:46Z</time>
      </trkpt>
      <trkpt lat="48.79469" lon="2.24288">
        <ele>124</ele>
        <time>2014-08-31T10:46:08Z</time>
      </trkpt>
      <trkpt lat="48.79449" lon="2.2428">
        <ele>126</ele>
        <time>2014-08-31T10:46:36Z</time>
      </trkpt>
      <trkpt lat="48.79448" lon="2.24275">
        <ele>130</ele>
        <time>2014-08-31T10:46:44Z</time>
      </trkpt>
      <trkpt lat="48.79443" lon="2.24274">
        <ele>134</ele>
        <time>2014-08-31T10:46:51Z</time>
      </trkpt>
      <trkpt lat="48.79439" lon="2.24271">
        <ele>135</ele>
        <time>2014-08-31T10:47:03Z</time>
      </trkpt>
      <trkpt lat="48.79444" lon="2.24249">
        <ele>132</ele>
        <time>2014-08-31T10:47:13Z</time>
      </trkpt>
      <trkpt lat="48.79444" lon="2.24228">
        <ele>136</ele>
        <time>2014-08-31T10:47:23Z</time>
      </trkpt>
      <trkpt lat="48.79445" lon="2.24224">
        <ele>139</ele>
        <time>2014-08-31T10:47:26Z</time>
      </trkpt>
      <trkpt lat="48.79441" lon="2.24219">
        <ele>136</ele>
        <time>2014-08-31T10:47:29Z</time>
      </trkpt>
      <trkpt lat="48.79439" lon="2.24209">
        <ele>136</ele>
        <time>2014-08-31T10:47:34Z</time>
      </trkpt>
      <trkpt lat="48.79438" lon="2.24205">
        <ele>137</ele>
        <time>2014-08-31T10:47:36Z</time>
      </trkpt>
      <trkpt lat="48.79436" lon="2.24202">
        <ele>137</ele>
        <time>2014-08-31T10:47:38Z</time>
      </trkpt>
      <trkpt lat="48.79431" lon="2.24195">
        <ele>138</ele>
        <time>2014-08-31T10:47:42Z</time>
      </trkpt>
      <trkpt lat="48.7943" lon="2.24192">
        <ele>138</ele>
        <time>2014-08-31T10:47:44Z</time>
      </trkpt>
      <trkpt lat="48.7943" lon="2.24184">
        <ele>141</ele>
        <time>2014-08-31T10:47:48Z</time>
      </trkpt>
      <trkpt lat="48.79428" lon="2.24177">
        <ele>142</ele>
        <time>2014-08-31T10:47:52Z</time>
      </trkpt>
      <trkpt lat="48.79421" lon="2.24131">
        <ele>140</ele>
        <time>2014-08-31T10:48:13Z</time>
      </trkpt>
      <trkpt lat="48.79422" lon="2.24126">
        <ele>136</ele>
        <time>2014-08-31T10:48:16Z</time>
      </trkpt>
      <trkpt lat="48.79417" lon="2.24114">
        <ele>137</ele>
        <time>2014-08-31T10:48:22Z</time>
      </trkpt>
      <trkpt lat="48.79409" lon="2.24102">
        <ele>133</ele>
        <time>2014-08-31T10:48:30Z</time>
      </trkpt>
      <trkpt lat="48.79409" lon="2.24091">
        <ele>134</ele>
        <time>2014-08-31T10:48:36Z</time>
      </trkpt>
      <trkpt lat="48.79403" lon="2.24088">
        <ele>130</ele>
        <time>2014-08-31T10:48:40Z</time>
      </trkpt>
      <trkpt lat="48.7937" lon="2.24063">
        <ele>117</ele>
        <time>2014-08-31T10:49:01Z</time>
      </trkpt>
      <trkpt lat="48.79364" lon="2.24063">
        <ele>119</ele>
        <time>2014-08-31T10:49:04Z</time>
      </trkpt>
      <trkpt lat="48.79357" lon="2.24063">
        <ele>121</ele>
        <time>2014-08-31T10:49:07Z</time>
      </trkpt>
      <trkpt lat="48.7934" lon="2.24055">
        <ele>117</ele>
        <time>2014-08-31T10:49:17Z</time>
      </trkpt>
      <trkpt lat="48.79334" lon="2.24053">
        <ele>116</ele>
        <time>2014-08-31T10:49:20Z</time>
      </trkpt>
      <trkpt lat="48.79329" lon="2.24056">
        <ele>117</ele>
        <time>2014-08-31T10:49:26Z</time>
      </trkpt>
      <trkpt lat="48.79323" lon="2.24071">
        <ele>120</ele>
        <time>2014-08-31T10:49:36Z</time>
      </trkpt>
      <trkpt lat="48.7932" lon="2.24076">
        <ele>128</ele>
        <time>2014-08-31T10:49:47Z</time>
      </trkpt>
      <trkpt lat="48.79319" lon="2.24085">
        <ele>132</ele>
        <time>2014-08-31T10:50:06Z</time>
      </trkpt>
      <trkpt lat="48.79319" lon="2.24095">
        <ele>134</ele>
        <time>2014-08-31T10:50:11Z</time>
      </trkpt>
      <trkpt lat="48.79319" lon="2.24103">
        <ele>132</ele>
        <time>2014-08-31T10:50:17Z</time>
      </trkpt>
      <trkpt lat="48.79321" lon="2.24118">
        <ele>135</ele>
        <time>2014-08-31T10:50:52Z</time>
      </trkpt>
      <trkpt lat="48.7932" lon="2.24126">
        <ele>136</ele>
        <time>2014-08-31T10:51:08Z</time>
      </trkpt>
      <trkpt lat="48.79318" lon="2.24133">
        <ele>139</ele>
        <time>2014-08-31T10:51:17Z</time>
      </trkpt>
      <trkpt lat="48.79318" lon="2.2414">
        <ele>141</ele>
        <time>2014-08-31T10:51:29Z</time>
      </trkpt>
      <trkpt lat="48.79316" lon="2.24147">
        <ele>148</ele>
        <time>2014-08-31T10:51:39Z</time>
      </trkpt>
      <trkpt lat="48.79317" lon="2.24163">
        <ele>145</ele>
        <time>2014-08-31T10:51:59Z</time>
      </trkpt>
      <trkpt lat="48.79317" lon="2.2417">
        <ele>152</ele>
        <time>2014-08-31T10:52:07Z</time>
      </trkpt>
      <trkpt lat="48.79313" lon="2.2419">
        <ele>154</ele>
        <time>2014-08-31T10:52:42Z</time>
      </trkpt>
      <trkpt lat="48.79312" lon="2.24196">
        <ele>153</ele>
        <time>2014-08-31T10:52:46Z</time>
      </trkpt>
      <trkpt lat="48.7931" lon="2.24198">
        <ele>155</ele>
        <time>2014-08-31T10:52:51Z</time>
      </trkpt>
      <trkpt lat="48.7931" lon="2.24201">
        <ele>155</ele>
        <time>2014-08-31T10:52:55Z</time>
      </trkpt>
      <trkpt lat="48.7931" lon="2.24204">
        <ele>155</ele>
        <time>2014-08-31T10:52:58Z</time>
      </trkpt>
      <trkpt lat="48.79299" lon="2.24221">
        <ele>155</ele>
        <time>2014-08-31T10:53:16Z</time>
      </trkpt>
      <trkpt lat="48.79297" lon="2.24227">
        <ele>156</ele>
        <time>2014-08-31T10:53:26Z</time>
      </trkpt>
      <trkpt lat="48.79293" lon="2.2423">
        <ele>159</ele>
        <time>2014-08-31T10:53:30Z</time>
      </trkpt>
      <trkpt lat="48.79292" lon="2.24234">
        <ele>162</ele>
        <time>2014-08-31T10:53:33Z</time>
      </trkpt>
      <trkpt lat="48.79289" lon="2.24237">
        <ele>163</ele>
        <time>2014-08-31T10:53:36Z</time>
      </trkpt>
      <trkpt lat="48.79281" lon="2.24243">
        <ele>167</ele>
        <time>2014-08-31T10:53:43Z</time>
      </trkpt>
      <trkpt lat="48.79271" lon="2.24263">
        <ele>164</ele>
        <time>2014-08-31T10:53:58Z</time>
      </trkpt>
      <trkpt lat="48.79271" lon="2.24268">
        <ele>160</ele>
        <time>2014-08-31T10:54:35Z</time>
      </trkpt>
      <trkpt lat="48.79269" lon="2.2427">
        <ele>162</ele>
        <time>2014-08-31T10:54:45Z</time>
      </trkpt>
      <trkpt lat="48.7927" lon="2.24268">
        <ele>156</ele>
        <time>2014-08-31T10:55:12Z</time>
      </trkpt>
      <trkpt lat="48.79271" lon="2.24261">
        <ele>157</ele>
        <time>2014-08-31T10:55:18Z</time>
      </trkpt>
      <trkpt lat="48.79272" lon="2.24258">
        <ele>158</ele>
        <time>2014-08-31T10:55:22Z</time>
      </trkpt>
      <trkpt lat="48.79273" lon="2.24206">
        <ele>151</ele>
        <time>2014-08-31T10:55:54Z</time>
      </trkpt>
      <trkpt lat="48.79267" lon="2.2417">
        <ele>143</ele>
        <time>2014-08-31T10:56:27Z</time>
      </trkpt>
      <trkpt lat="48.79271" lon="2.24111">
        <ele>139</ele>
        <time>2014-08-31T10:57:01Z</time>
      </trkpt>
      <trkpt lat="48.7927" lon="2.24096">
        <ele>137</ele>
        <time>2014-08-31T10:57:10Z</time>
      </trkpt>
      <trkpt lat="48.79276" lon="2.24067">
        <ele>137</ele>
        <time>2014-08-31T10:57:28Z</time>
      </trkpt>
      <trkpt lat="48.79279" lon="2.2406">
        <ele>141</ele>
        <time>2014-08-31T10:57:33Z</time>
      </trkpt>
      <trkpt lat="48.79275" lon="2.24043">
        <ele>137</ele>
        <time>2014-08-31T10:57:42Z</time>
      </trkpt>
      <trkpt lat="48.79274" lon="2.24034">
        <ele>140</ele>
        <time>2014-08-31T10:57:47Z</time>
      </trkpt>
      <trkpt lat="48.79259" lon="2.23991">
        <ele>139</ele>
        <time>2014-08-31T10:58:08Z</time>
      </trkpt>
      <trkpt lat="48.7926" lon="2.23977">
        <ele>135</ele>
        <time>2014-08-31T10:58:17Z</time>
      </trkpt>
      <trkpt lat="48.7926" lon="2.23972">
        <ele>136</ele>
        <time>2014-08-31T10:58:21Z</time>
      </trkpt>
      <trkpt lat="48.79265" lon="2.23954">
        <ele>131</ele>
        <time>2014-08-31T10:58:33Z</time>
      </trkpt>
      <trkpt lat="48.79261" lon="2.23946">
        <ele>132</ele>
        <time>2014-08-31T10:58:39Z</time>
      </trkpt>
      <trkpt lat="48.7926" lon="2.23941">
        <ele>138</ele>
        <time>2014-08-31T10:58:42Z</time>
      </trkpt>
      <trkpt lat="48.79261" lon="2.23936">
        <ele>138</ele>
        <time>2014-08-31T10:58:45Z</time>
      </trkpt>
      <trkpt lat="48.79267" lon="2.23923">
        <ele>139</ele>
        <time>2014-08-31T10:58:53Z</time>
      </trkpt>
      <trkpt lat="48.79269" lon="2.23918">
        <ele>141</ele>
        <time>2014-08-31T10:58:56Z</time>
      </trkpt>
      <trkpt lat="48.79266" lon="2.23908">
        <ele>138</ele>
        <time>2014-08-31T10:59:01Z</time>
      </trkpt>
      <trkpt lat="48.79266" lon="2.23903">
        <ele>139</ele>
        <time>2014-08-31T10:59:04Z</time>
      </trkpt>
      <trkpt lat="48.79269" lon="2.23892">
        <ele>143</ele>
        <time>2014-08-31T10:59:12Z</time>
      </trkpt>
      <trkpt lat="48.79264" lon="2.23871">
        <ele>137</ele>
        <time>2014-08-31T10:59:26Z</time>
      </trkpt>
      <trkpt lat="48.79261" lon="2.23859">
        <ele>139</ele>
        <time>2014-08-31T10:59:33Z</time>
      </trkpt>
      <trkpt lat="48.7926" lon="2.23852">
        <ele>143</ele>
        <time>2014-08-31T10:59:38Z</time>
      </trkpt>
      <trkpt lat="48.79259" lon="2.23844">
        <ele>148</ele>
        <time>2014-08-31T10:59:46Z</time>
      </trkpt>
      <trkpt lat="48.79258" lon="2.23829">
        <ele>151</ele>
        <time>2014-08-31T10:59:58Z</time>
      </trkpt>
      <trkpt lat="48.79262" lon="2.23823">
        <ele>152</ele>
        <time>2014-08-31T11:00:03Z</time>
      </trkpt>
      <trkpt lat="48.79265" lon="2.23762">
        <ele>147</ele>
        <time>2014-08-31T11:00:34Z</time>
      </trkpt>
      <trkpt lat="48.79253" lon="2.23705">
        <ele>144</ele>
        <time>2014-08-31T11:01:00Z</time>
      </trkpt>
      <trkpt lat="48.79254" lon="2.23691">
        <ele>143</ele>
        <time>2014-08-31T11:01:08Z</time>
      </trkpt>
      <trkpt lat="48.79247" lon="2.23662">
        <ele>138</ele>
        <time>2014-08-31T11:01:26Z</time>
      </trkpt>
      <trkpt lat="48.79236" lon="2.23654">
        <ele>135</ele>
        <time>2014-08-31T11:01:34Z</time>
      </trkpt>
      <trkpt lat="48.79206" lon="2.23645">
        <ele>136</ele>
        <time>2014-08-31T11:01:51Z</time>
      </trkpt>
      <trkpt lat="48.792" lon="2.23642">
        <ele>142</ele>
        <time>2014-08-31T11:01:55Z</time>
      </trkpt>
      <trkpt lat="48.79188" lon="2.23643">
        <ele>145</ele>
        <time>2014-08-31T11:02:02Z</time>
      </trkpt>
      <trkpt lat="48.79142" lon="2.23646">
        <ele>145</ele>
        <time>2014-08-31T11:02:31Z</time>
      </trkpt>
      <trkpt lat="48.79137" lon="2.23647">
        <ele>147</ele>
        <time>2014-08-31T11:02:35Z</time>
      </trkpt>
      <trkpt lat="48.79131" lon="2.23649">
        <ele>150</ele>
        <time>2014-08-31T11:02:39Z</time>
      </trkpt>
      <trkpt lat="48.79113" lon="2.2365">
        <ele>150</ele>
        <time>2014-08-31T11:02:49Z</time>
      </trkpt>
      <trkpt lat="48.79107" lon="2.23648">
        <ele>154</ele>
        <time>2014-08-31T11:02:52Z</time>
      </trkpt>
      <trkpt lat="48.79096" lon="2.23655">
        <ele>158</ele>
        <time>2014-08-31T11:03:02Z</time>
      </trkpt>
      <trkpt lat="48.79091" lon="2.23655">
        <ele>161</ele>
        <time>2014-08-31T11:03:05Z</time>
      </trkpt>
      <trkpt lat="48.79086" lon="2.23657">
        <ele>164</ele>
        <time>2014-08-31T11:03:08Z</time>
      </trkpt>
      <trkpt lat="48.79038" lon="2.23675">
        <ele>157</ele>
        <time>2014-08-31T11:03:39Z</time>
      </trkpt>
      <trkpt lat="48.79011" lon="2.23683">
        <ele>158</ele>
        <time>2014-08-31T11:03:57Z</time>
      </trkpt>
      <trkpt lat="48.79004" lon="2.23681">
        <ele>160</ele>
        <time>2014-08-31T11:04:02Z</time>
      </trkpt>
      <trkpt lat="48.78992" lon="2.2368">
        <ele>157</ele>
        <time>2014-08-31T11:04:11Z</time>
      </trkpt>
      <trkpt lat="48.78977" lon="2.2367">
        <ele>156</ele>
        <time>2014-08-31T11:04:23Z</time>
      </trkpt>
      <trkpt lat="48.78974" lon="2.23668">
        <ele>159</ele>
        <time>2014-08-31T11:04:26Z</time>
      </trkpt>
      <trkpt lat="48.78968" lon="2.23657">
        <ele>171</ele>
        <time>2014-08-31T11:04:40Z</time>
      </trkpt>
      <trkpt lat="48.78962" lon="2.23657">
        <ele>169</ele>
        <time>2014-08-31T11:04:45Z</time>
      </trkpt>
      <trkpt lat="48.7891" lon="2.23642">
        <ele>162</ele>
        <time>2014-08-31T11:05:14Z</time>
      </trkpt>
      <trkpt lat="48.78908" lon="2.23642">
        <ele>162</ele>
        <time>2014-08-31T11:06:09Z</time>
      </trkpt>
      <trkpt lat="48.78897" lon="2.23618">
        <ele>158</ele>
        <time>2014-08-31T11:06:21Z</time>
      </trkpt>
      <trkpt lat="48.78897" lon="2.23615">
        <ele>159</ele>
        <time>2014-08-31T11:06:23Z</time>
      </trkpt>
      <trkpt lat="48.7891" lon="2.23548">
        <ele>160</ele>
        <time>2014-08-31T11:06:55Z</time>
      </trkpt>
      <trkpt lat="48.78912" lon="2.23539">
        <ele>162</ele>
        <time>2014-08-31T11:07:01Z</time>
      </trkpt>
      <trkpt lat="48.78908" lon="2.23515">
        <ele>158</ele>
        <time>2014-08-31T11:07:14Z</time>
      </trkpt>
      <trkpt lat="48.78911" lon="2.23464">
        <ele>160</ele>
        <time>2014-08-31T11:07:39Z</time>
      </trkpt>
      <trkpt lat="48.78909" lon="2.23447">
        <ele>163</ele>
        <time>2014-08-31T11:07:47Z</time>
      </trkpt>
      <trkpt lat="48.78911" lon="2.23432">
        <ele>164</ele>
        <time>2014-08-31T11:07:56Z</time>
      </trkpt>
      <trkpt lat="48.78912" lon="2.23415">
        <ele>164</ele>
        <time>2014-08-31T11:08:02Z</time>
      </trkpt>
      <trkpt lat="48.78914" lon="2.23382">
        <ele>163</ele>
        <time>2014-08-31T11:08:15Z</time>
      </trkpt>
      <trkpt lat="48.78911" lon="2.23375">
        <ele>166</ele>
        <time>2014-08-31T11:08:19Z</time>
      </trkpt>
      <trkpt lat="48.78911" lon="2.23366">
        <ele>166</ele>
        <time>2014-08-31T11:08:23Z</time>
      </trkpt>
      <trkpt lat="48.78912" lon="2.23353">
        <ele>172</ele>
        <time>2014-08-31T11:08:30Z</time>
      </trkpt>
      <trkpt lat="48.78935" lon="2.23281">
        <ele>171</ele>
        <time>2014-08-31T11:09:00Z</time>
      </trkpt>
      <trkpt lat="48.78936" lon="2.23264">
        <ele>168</ele>
        <time>2014-08-31T11:09:06Z</time>
      </trkpt>
      <trkpt lat="48.7894" lon="2.23256">
        <ele>165</ele>
        <time>2014-08-31T11:09:09Z</time>
      </trkpt>
      <trkpt lat="48.78941" lon="2.23248">
        <ele>163</ele>
        <time>2014-08-31T11:09:12Z</time>
      </trkpt>
      <trkpt lat="48.78955" lon="2.23216">
        <ele>162</ele>
        <time>2014-08-31T11:09:26Z</time>
      </trkpt>
      <trkpt lat="48.78985" lon="2.23151">
        <ele>165</ele>
        <time>2014-08-31T11:09:56Z</time>
      </trkpt>
      <trkpt lat="48.78992" lon="2.23127">
        <ele>165</ele>
        <time>2014-08-31T11:10:06Z</time>
      </trkpt>
      <trkpt lat="48.79" lon="2.23102">
        <ele>162</ele>
        <time>2014-08-31T11:10:19Z</time>
      </trkpt>
      <trkpt lat="48.79001" lon="2.2308">
        <ele>160</ele>
        <time>2014-08-31T11:10:28Z</time>
      </trkpt>
      <trkpt lat="48.79003" lon="2.23075">
        <ele>159</ele>
        <time>2014-08-31T11:10:30Z</time>
      </trkpt>
      <trkpt lat="48.79007" lon="2.23072">
        <ele>162</ele>
        <time>2014-08-31T11:10:32Z</time>
      </trkpt>
      <trkpt lat="48.79024" lon="2.23049">
        <ele>167</ele>
        <time>2014-08-31T11:10:47Z</time>
      </trkpt>
      <trkpt lat="48.79024" lon="2.23039">
        <ele>170</ele>
        <time>2014-08-31T11:10:51Z</time>
      </trkpt>
      <trkpt lat="48.79028" lon="2.23029">
        <ele>170</ele>
        <time>2014-08-31T11:10:55Z</time>
      </trkpt>
      <trkpt lat="48.79027" lon="2.23024">
        <ele>168</ele>
        <time>2014-08-31T11:10:57Z</time>
      </trkpt>
      <trkpt lat="48.79025" lon="2.23014">
        <ele>170</ele>
        <time>2014-08-31T11:11:01Z</time>
      </trkpt>
      <trkpt lat="48.7903" lon="2.22924">
        <ele>159</ele>
        <time>2014-08-31T11:11:32Z</time>
      </trkpt>
      <trkpt lat="48.7903" lon="2.22915">
        <ele>159</ele>
        <time>2014-08-31T11:11:36Z</time>
      </trkpt>
      <trkpt lat="48.79033" lon="2.22898">
        <ele>163</ele>
        <time>2014-08-31T11:11:44Z</time>
      </trkpt>
      <trkpt lat="48.79033" lon="2.22892">
        <ele>165</ele>
        <time>2014-08-31T11:11:48Z</time>
      </trkpt>
      <trkpt lat="48.79033" lon="2.22887">
        <ele>169</ele>
        <time>2014-08-31T11:11:51Z</time>
      </trkpt>
      <trkpt lat="48.79038" lon="2.22876">
        <ele>169</ele>
        <time>2014-08-31T11:11:57Z</time>
      </trkpt>
      <trkpt lat="48.7904" lon="2.22872">
        <ele>172</ele>
        <time>2014-08-31T11:11:59Z</time>
      </trkpt>
      <trkpt lat="48.79042" lon="2.2285">
        <ele>169</ele>
        <time>2014-08-31T11:12:09Z</time>
      </trkpt>
      <trkpt lat="48.79051" lon="2.2283">
        <ele>167</ele>
        <time>2014-08-31T11:12:17Z</time>
      </trkpt>
      <trkpt lat="48.79052" lon="2.22809">
        <ele>167</ele>
        <time>2014-08-31T11:12:25Z</time>
      </trkpt>
      <trkpt lat="48.7905" lon="2.22805">
        <ele>168</ele>
        <time>2014-08-31T11:12:27Z</time>
      </trkpt>
      <trkpt lat="48.79048" lon="2.22801">
        <ele>170</ele>
        <time>2014-08-31T11:12:29Z</time>
      </trkpt>
      <trkpt lat="48.79049" lon="2.22797">
        <ele>171</ele>
        <time>2014-08-31T11:12:31Z</time>
      </trkpt>
      <trkpt lat="48.79057" lon="2.22769">
        <ele>162</ele>
        <time>2014-08-31T11:12:41Z</time>
      </trkpt>
      <trkpt lat="48.79057" lon="2.22763">
        <ele>163</ele>
        <time>2014-08-31T11:12:43Z</time>
      </trkpt>
      <trkpt lat="48.79055" lon="2.22756">
        <ele>165</ele>
        <time>2014-08-31T11:12:45Z</time>
      </trkpt>
      <trkpt lat="48.79055" lon="2.22738">
        <ele>165</ele>
        <time>2014-08-31T11:12:51Z</time>
      </trkpt>
      <trkpt lat="48.79061" lon="2.22722">
        <ele>165</ele>
        <time>2014-08-31T11:12:57Z</time>
      </trkpt>
      <trkpt lat="48.79062" lon="2.22717">
        <ele>168</ele>
        <time>2014-08-31T11:12:59Z</time>
      </trkpt>
      <trkpt lat="48.79063" lon="2.22707">
        <ele>170</ele>
        <time>2014-08-31T11:13:03Z</time>
      </trkpt>
      <trkpt lat="48.79066" lon="2.22702">
        <ele>171</ele>
        <time>2014-08-31T11:13:05Z</time>
      </trkpt>
      <trkpt lat="48.79068" lon="2.22617">
        <ele>163</ele>
        <time>2014-08-31T11:13:35Z</time>
      </trkpt>
      <trkpt lat="48.79073" lon="2.22602">
        <ele>166</ele>
        <time>2014-08-31T11:13:42Z</time>
      </trkpt>
      <trkpt lat="48.79072" lon="2.22597">
        <ele>167</ele>
        <time>2014-08-31T11:13:44Z</time>
      </trkpt>
      <trkpt lat="48.7907" lon="2.22592">
        <ele>164</ele>
        <time>2014-08-31T11:13:46Z</time>
      </trkpt>
      <trkpt lat="48.79069" lon="2.22582">
        <ele>168</ele>
        <time>2014-08-31T11:13:51Z</time>
      </trkpt>
      <trkpt lat="48.79074" lon="2.22564">
        <ele>169</ele>
        <time>2014-08-31T11:13:59Z</time>
      </trkpt>
      <trkpt lat="48.79077" lon="2.22555">
        <ele>170</ele>
        <time>2014-08-31T11:14:03Z</time>
      </trkpt>
      <trkpt lat="48.79077" lon="2.22546">
        <ele>171</ele>
        <time>2014-08-31T11:14:07Z</time>
      </trkpt>
      <trkpt lat="48.79077" lon="2.22537">
        <ele>169</ele>
        <time>2014-08-31T11:14:11Z</time>
      </trkpt>
      <trkpt lat="48.79079" lon="2.22533">
        <ele>170</ele>
        <time>2014-08-31T11:14:13Z</time>
      </trkpt>
      <trkpt lat="48.7909" lon="2.2251">
        <ele>171</ele>
        <time>2014-08-31T11:14:23Z</time>
      </trkpt>
      <trkpt lat="48.79091" lon="2.22502">
        <ele>169</ele>
        <time>2014-08-31T11:14:28Z</time>
      </trkpt>
      <trkpt lat="48.79093" lon="2.22495">
        <ele>169</ele>
        <time>2014-08-31T11:14:35Z</time>
      </trkpt>
      <trkpt lat="48.79107" lon="2.2247">
        <ele>169</ele>
        <time>2014-08-31T11:14:50Z</time>
      </trkpt>
      <trkpt lat="48.79144" lon="2.22413">
        <ele>170</ele>
        <time>2014-08-31T11:15:22Z</time>
      </trkpt>
      <trkpt lat="48.79174" lon="2.22352">
        <ele>165</ele>
        <time>2014-08-31T11:15:53Z</time>
      </trkpt>
      <trkpt lat="48.79188" lon="2.22325">
        <ele>164</ele>
        <time>2014-08-31T11:16:05Z</time>
      </trkpt>
      <trkpt lat="48.7919" lon="2.22321">
        <ele>167</ele>
        <time>2014-08-31T11:16:07Z</time>
      </trkpt>
      <trkpt lat="48.79199" lon="2.2231">
        <ele>169</ele>
        <time>2014-08-31T11:16:16Z</time>
      </trkpt>
      <trkpt lat="48.792" lon="2.22306">
        <ele>170</ele>
        <time>2014-08-31T11:16:18Z</time>
      </trkpt>
      <trkpt lat="48.79203" lon="2.22303">
        <ele>172</ele>
        <time>2014-08-31T11:16:20Z</time>
      </trkpt>
      <trkpt lat="48.79234" lon="2.22248">
        <ele>169</ele>
        <time>2014-08-31T11:16:50Z</time>
      </trkpt>
      <trkpt lat="48.79242" lon="2.22236">
        <ele>171</ele>
        <time>2014-08-31T11:16:58Z</time>
      </trkpt>
      <trkpt lat="48.79246" lon="2.22225">
        <ele>172</ele>
        <time>2014-08-31T11:17:02Z</time>
      </trkpt>
      <trkpt lat="48.79275" lon="2.22168">
        <ele>171</ele>
        <time>2014-08-31T11:17:33Z</time>
      </trkpt>
      <trkpt lat="48.79314" lon="2.22107">
        <ele>171</ele>
        <time>2014-08-31T11:18:04Z</time>
      </trkpt>
      <trkpt lat="48.79319" lon="2.2209">
        <ele>170</ele>
        <time>2014-08-31T11:18:13Z</time>
      </trkpt>
      <trkpt lat="48.7935" lon="2.22036">
        <ele>166</ele>
        <time>2014-08-31T11:18:43Z</time>
      </trkpt>
      <trkpt lat="48.79352" lon="2.2203">
        <ele>166</ele>
        <time>2014-08-31T11:18:45Z</time>
      </trkpt>
      <trkpt lat="48.79376" lon="2.21956">
        <ele>165</ele>
        <time>2014-08-31T11:19:16Z</time>
      </trkpt>
      <trkpt lat="48.79376" lon="2.21951">
        <ele>166</ele>
        <time>2014-08-31T11:19:18Z</time>
      </trkpt>
      <trkpt lat="48.79377" lon="2.21922">
        <ele>167</ele>
        <time>2014-08-31T11:19:33Z</time>
      </trkpt>
      <trkpt lat="48.7938" lon="2.21922">
        <ele>171</ele>
        <time>2014-08-31T11:19:49Z</time>
      </trkpt>
      <trkpt lat="48.79379" lon="2.21919">
        <ele>172</ele>
        <time>2014-08-31T11:19:52Z</time>
      </trkpt>
      <trkpt lat="48.79363" lon="2.21852">
        <ele>168</ele>
        <time>2014-08-31T11:20:24Z</time>
      </trkpt>
      <trkpt lat="48.79364" lon="2.21847">
        <ele>167</ele>
        <time>2014-08-31T11:20:29Z</time>
      </trkpt>
      <trkpt lat="48.79367" lon="2.21841">
        <ele>168</ele>
        <time>2014-08-31T11:20:34Z</time>
      </trkpt>
      <trkpt lat="48.79372" lon="2.21837">
        <ele>170</ele>
        <time>2014-08-31T11:20:40Z</time>
      </trkpt>
      <trkpt lat="48.79375" lon="2.21831">
        <ele>172</ele>
        <time>2014-08-31T11:22:00Z</time>
      </trkpt>
      <trkpt lat="48.79387" lon="2.21768">
        <ele>171</ele>
        <time>2014-08-31T11:22:30Z</time>
      </trkpt>
      <trkpt lat="48.79386" lon="2.21752">
        <ele>171</ele>
        <time>2014-08-31T11:22:39Z</time>
      </trkpt>
      <trkpt lat="48.79387" lon="2.21743">
        <ele>173</ele>
        <time>2014-08-31T11:22:43Z</time>
      </trkpt>
      <trkpt lat="48.79388" lon="2.21735">
        <ele>175</ele>
        <time>2014-08-31T11:22:47Z</time>
      </trkpt>
      <trkpt lat="48.79391" lon="2.21667">
        <ele>175</ele>
        <time>2014-08-31T11:23:20Z</time>
      </trkpt>
      <trkpt lat="48.7939" lon="2.21648">
        <ele>176</ele>
        <time>2014-08-31T11:23:29Z</time>
      </trkpt>
      <trkpt lat="48.79389" lon="2.21639">
        <ele>176</ele>
        <time>2014-08-31T11:23:33Z</time>
      </trkpt>
      <trkpt lat="48.7939" lon="2.21631">
        <ele>180</ele>
        <time>2014-08-31T11:23:37Z</time>
      </trkpt>
      <trkpt lat="48.79392" lon="2.21564">
        <ele>171</ele>
        <time>2014-08-31T11:24:07Z</time>
      </trkpt>
      <trkpt lat="48.79391" lon="2.21554">
        <ele>178</ele>
        <time>2014-08-31T11:24:11Z</time>
      </trkpt>
      <trkpt lat="48.79388" lon="2.2154">
        <ele>182</ele>
        <time>2014-08-31T11:24:19Z</time>
      </trkpt>
      <trkpt lat="48.79392" lon="2.21505">
        <ele>183</ele>
        <time>2014-08-31T11:24:36Z</time>
      </trkpt>
      <trkpt lat="48.79392" lon="2.21481">
        <ele>185</ele>
        <time>2014-08-31T11:24:47Z</time>
      </trkpt>
      <trkpt lat="48.79395" lon="2.21473">
        <ele>188</ele>
        <time>2014-08-31T11:24:52Z</time>
      </trkpt>
      <trkpt lat="48.79399" lon="2.21466">
        <ele>188</ele>
        <time>2014-08-31T11:24:56Z</time>
      </trkpt>
      <trkpt lat="48.79401" lon="2.21387">
        <ele>181</ele>
        <time>2014-08-31T11:25:26Z</time>
      </trkpt>
      <trkpt lat="48.79399" lon="2.21377">
        <ele>178</ele>
        <time>2014-08-31T11:25:30Z</time>
      </trkpt>
      <trkpt lat="48.79394" lon="2.2137">
        <ele>180</ele>
        <time>2014-08-31T11:25:33Z</time>
      </trkpt>
      <trkpt lat="48.79393" lon="2.21357">
        <ele>181</ele>
        <time>2014-08-31T11:25:37Z</time>
      </trkpt>
      <trkpt lat="48.79397" lon="2.21327">
        <ele>177</ele>
        <time>2014-08-31T11:25:48Z</time>
      </trkpt>
      <trkpt lat="48.79388" lon="2.21246">
        <ele>173</ele>
        <time>2014-08-31T11:26:20Z</time>
      </trkpt>
      <trkpt lat="48.79392" lon="2.21238">
        <ele>174</ele>
        <time>2014-08-31T11:26:24Z</time>
      </trkpt>
      <trkpt lat="48.79384" lon="2.2121">
        <ele>171</ele>
        <time>2014-08-31T11:26:32Z</time>
      </trkpt>
      <trkpt lat="48.79387" lon="2.212">
        <ele>171</ele>
        <time>2014-08-31T11:26:35Z</time>
      </trkpt>
      <trkpt lat="48.79394" lon="2.21197">
        <ele>173</ele>
        <time>2014-08-31T11:26:39Z</time>
      </trkpt>
      <trkpt lat="48.79395" lon="2.21187">
        <ele>176</ele>
        <time>2014-08-31T11:26:43Z</time>
      </trkpt>
      <trkpt lat="48.79395" lon="2.21176">
        <ele>178</ele>
        <time>2014-08-31T11:26:47Z</time>
      </trkpt>
      <trkpt lat="48.79402" lon="2.21159">
        <ele>173</ele>
        <time>2014-08-31T11:26:53Z</time>
      </trkpt>
      <trkpt lat="48.79401" lon="2.21136">
        <ele>174</ele>
        <time>2014-08-31T11:27:01Z</time>
      </trkpt>
      <trkpt lat="48.79395" lon="2.21128">
        <ele>173</ele>
        <time>2014-08-31T11:27:04Z</time>
      </trkpt>
      <trkpt lat="48.79395" lon="2.21118">
        <ele>172</ele>
        <time>2014-08-31T11:27:08Z</time>
      </trkpt>
      <trkpt lat="48.79395" lon="2.21084">
        <ele>171</ele>
        <time>2014-08-31T11:27:22Z</time>
      </trkpt>
      <trkpt lat="48.79392" lon="2.21077">
        <ele>169</ele>
        <time>2014-08-31T11:27:25Z</time>
      </trkpt>
      <trkpt lat="48.79389" lon="2.21051">
        <ele>168</ele>
        <time>2014-08-31T11:27:35Z</time>
      </trkpt>
      <trkpt lat="48.79395" lon="2.20999">
        <ele>173</ele>
        <time>2014-08-31T11:27:57Z</time>
      </trkpt>
      <trkpt lat="48.79395" lon="2.20984">
        <ele>170</ele>
        <time>2014-08-31T11:28:08Z</time>
      </trkpt>
      <trkpt lat="48.79393" lon="2.20976">
        <ele>173</ele>
        <time>2014-08-31T11:28:19Z</time>
      </trkpt>
      <trkpt lat="48.79398" lon="2.20967">
        <ele>177</ele>
        <time>2014-08-31T11:28:25Z</time>
      </trkpt>
      <trkpt lat="48.79403" lon="2.20961">
        <ele>178</ele>
        <time>2014-08-31T11:28:28Z</time>
      </trkpt>
      <trkpt lat="48.79416" lon="2.20941">
        <ele>178</ele>
        <time>2014-08-31T11:28:37Z</time>
      </trkpt>
      <trkpt lat="48.79431" lon="2.2092">
        <ele>176</ele>
        <time>2014-08-31T11:28:49Z</time>
      </trkpt>
      <trkpt lat="48.79425" lon="2.20902">
        <ele>173</ele>
        <time>2014-08-31T11:28:56Z</time>
      </trkpt>
      <trkpt lat="48.79417" lon="2.20882">
        <ele>171</ele>
        <time>2014-08-31T11:29:02Z</time>
      </trkpt>
      <trkpt lat="48.7942" lon="2.20874">
        <ele>171</ele>
        <time>2014-08-31T11:29:07Z</time>
      </trkpt>
      <trkpt lat="48.79425" lon="2.20868">
        <ele>176</ele>
        <time>2014-08-31T11:29:13Z</time>
      </trkpt>
      <trkpt lat="48.7943" lon="2.2086">
        <ele>178</ele>
        <time>2014-08-31T11:29:16Z</time>
      </trkpt>
      <trkpt lat="48.79446" lon="2.20846">
        <ele>178</ele>
        <time>2014-08-31T11:29:23Z</time>
      </trkpt>
      <trkpt lat="48.79471" lon="2.20777">
        <ele>171</ele>
        <time>2014-08-31T11:29:55Z</time>
      </trkpt>
      <trkpt lat="48.79469" lon="2.20767">
        <ele>172</ele>
        <time>2014-08-31T11:29:59Z</time>
      </trkpt>
      <trkpt lat="48.79469" lon="2.20756">
        <ele>169</ele>
        <time>2014-08-31T11:30:04Z</time>
      </trkpt>
      <trkpt lat="48.79452" lon="2.20726">
        <ele>167</ele>
        <time>2014-08-31T11:30:21Z</time>
      </trkpt>
      <trkpt lat="48.79451" lon="2.20697">
        <ele>164</ele>
        <time>2014-08-31T11:30:37Z</time>
      </trkpt>
      <trkpt lat="48.79456" lon="2.20681">
        <ele>159</ele>
        <time>2014-08-31T11:30:45Z</time>
      </trkpt>
      <trkpt lat="48.79448" lon="2.20648">
        <ele>167</ele>
        <time>2014-08-31T11:30:58Z</time>
      </trkpt>
      <trkpt lat="48.79445" lon="2.20638">
        <ele>169</ele>
        <time>2014-08-31T11:31:01Z</time>
      </trkpt>
      <trkpt lat="48.79445" lon="2.2059">
        <ele>163</ele>
        <time>2014-08-31T11:31:28Z</time>
      </trkpt>
      <trkpt lat="48.79447" lon="2.20573">
        <ele>166</ele>
        <time>2014-08-31T11:31:35Z</time>
      </trkpt>
      <trkpt lat="48.79452" lon="2.20569">
        <ele>169</ele>
        <time>2014-08-31T11:31:41Z</time>
      </trkpt>
      <trkpt lat="48.79459" lon="2.20559">
        <ele>164</ele>
        <time>2014-08-31T11:31:53Z</time>
      </trkpt>
      <trkpt lat="48.79458" lon="2.20487">
        <ele>149</ele>
        <time>2014-08-31T11:32:23Z</time>
      </trkpt>
      <trkpt lat="48.7946" lon="2.20477">
        <ele>149</ele>
        <time>2014-08-31T11:32:26Z</time>
      </trkpt>
      <trkpt lat="48.79459" lon="2.20458">
        <ele>147</ele>
        <time>2014-08-31T11:32:33Z</time>
      </trkpt>
      <trkpt lat="48.79462" lon="2.20447">
        <ele>145</ele>
        <time>2014-08-31T11:32:37Z</time>
      </trkpt>
      <trkpt lat="48.79461" lon="2.20437">
        <ele>144</ele>
        <time>2014-08-31T11:32:40Z</time>
      </trkpt>
      <trkpt lat="48.79467" lon="2.20421">
        <ele>146</ele>
        <time>2014-08-31T11:32:48Z</time>
      </trkpt>
      <trkpt lat="48.79464" lon="2.20412">
        <ele>147</ele>
        <time>2014-08-31T11:32:52Z</time>
      </trkpt>
      <trkpt lat="48.79465" lon="2.20402">
        <ele>139</ele>
        <time>2014-08-31T11:32:57Z</time>
      </trkpt>
      <trkpt lat="48.79468" lon="2.20394">
        <ele>140</ele>
        <time>2014-08-31T11:33:02Z</time>
      </trkpt>
      <trkpt lat="48.79469" lon="2.20385">
        <ele>142</ele>
        <time>2014-08-31T11:33:08Z</time>
      </trkpt>
      <trkpt lat="48.79468" lon="2.20376">
        <ele>139</ele>
        <time>2014-08-31T11:33:12Z</time>
      </trkpt>
      <trkpt lat="48.79456" lon="2.2036">
        <ele>140</ele>
        <time>2014-08-31T11:33:18Z</time>
      </trkpt>
      <trkpt lat="48.79455" lon="2.2035">
        <ele>145</ele>
        <time>2014-08-31T11:33:22Z</time>
      </trkpt>
      <trkpt lat="48.79458" lon="2.20341">
        <ele>146</ele>
        <time>2014-08-31T11:33:25Z</time>
      </trkpt>
      <trkpt lat="48.79451" lon="2.20333">
        <ele>148</ele>
        <time>2014-08-31T11:33:29Z</time>
      </trkpt>
      <trkpt lat="48.79429" lon="2.20317">
        <ele>144</ele>
        <time>2014-08-31T11:33:35Z</time>
      </trkpt>
      <trkpt lat="48.79426" lon="2.20296">
        <ele>142</ele>
        <time>2014-08-31T11:33:43Z</time>
      </trkpt>
      <trkpt lat="48.79417" lon="2.2028">
        <ele>138</ele>
        <time>2014-08-31T11:34:09Z</time>
      </trkpt>
      <trkpt lat="48.7942" lon="2.20264">
        <ele>141</ele>
        <time>2014-08-31T11:34:19Z</time>
      </trkpt>
      <trkpt lat="48.79436" lon="2.20239">
        <ele>141</ele>
        <time>2014-08-31T11:34:33Z</time>
      </trkpt>
      <trkpt lat="48.79431" lon="2.20207">
        <ele>136</ele>
        <time>2014-08-31T11:34:44Z</time>
      </trkpt>
      <trkpt lat="48.79434" lon="2.20198">
        <ele>132</ele>
        <time>2014-08-31T11:34:48Z</time>
      </trkpt>
      <trkpt lat="48.79432" lon="2.20188">
        <ele>133</ele>
        <time>2014-08-31T11:34:53Z</time>
      </trkpt>
      <trkpt lat="48.79432" lon="2.20179">
        <ele>133</ele>
        <time>2014-08-31T11:34:58Z</time>
      </trkpt>
      <trkpt lat="48.79437" lon="2.20168">
        <ele>135</ele>
        <time>2014-08-31T11:35:02Z</time>
      </trkpt>
      <trkpt lat="48.79438" lon="2.20157">
        <ele>134</ele>
        <time>2014-08-31T11:35:06Z</time>
      </trkpt>
      <trkpt lat="48.7944" lon="2.20147">
        <ele>135</ele>
        <time>2014-08-31T11:35:10Z</time>
      </trkpt>
      <trkpt lat="48.79438" lon="2.20118">
        <ele>133</ele>
        <time>2014-08-31T11:35:24Z</time>
      </trkpt>
      <trkpt lat="48.79409" lon="2.20085">
        <ele>132</ele>
        <time>2014-08-31T11:35:43Z</time>
      </trkpt>
      <trkpt lat="48.79407" lon="2.20076">
        <ele>133</ele>
        <time>2014-08-31T11:35:47Z</time>
      </trkpt>
      <trkpt lat="48.79397" lon="2.2006">
        <ele>134</ele>
        <time>2014-08-31T11:35:57Z</time>
      </trkpt>
      <trkpt lat="48.79392" lon="2.20054">
        <ele>135</ele>
        <time>2014-08-31T11:36:02Z</time>
      </trkpt>
      <trkpt lat="48.79387" lon="2.20051">
        <ele>129</ele>
        <time>2014-08-31T11:36:05Z</time>
      </trkpt>
      <trkpt lat="48.7937" lon="2.20032">
        <ele>128</ele>
        <time>2014-08-31T11:36:14Z</time>
      </trkpt>
      <trkpt lat="48.79363" lon="2.20032">
        <ele>129</ele>
        <time>2014-08-31T11:36:17Z</time>
      </trkpt>
      <trkpt lat="48.79356" lon="2.20032">
        <ele>131</ele>
        <time>2014-08-31T11:36:20Z</time>
      </trkpt>
      <trkpt lat="48.7935" lon="2.20033">
        <ele>133</ele>
        <time>2014-08-31T11:36:23Z</time>
      </trkpt>
      <trkpt lat="48.79344" lon="2.20034">
        <ele>135</ele>
        <time>2014-08-31T11:36:26Z</time>
      </trkpt>
      <trkpt lat="48.79331" lon="2.2003">
        <ele>136</ele>
        <time>2014-08-31T11:36:37Z</time>
      </trkpt>
      <trkpt lat="48.79319" lon="2.20031">
        <ele>139</ele>
        <time>2014-08-31T11:36:43Z</time>
      </trkpt>
      <trkpt lat="48.79291" lon="2.20027">
        <ele>138</ele>
        <time>2014-08-31T11:37:08Z</time>
      </trkpt>
      <trkpt lat="48.79272" lon="2.20025">
        <ele>139</ele>
        <time>2014-08-31T11:37:15Z</time>
      </trkpt>
      <trkpt lat="48.79261" lon="2.2003">
        <ele>137</ele>
        <time>2014-08-31T11:37:24Z</time>
      </trkpt>
      <trkpt lat="48.79235" lon="2.20022">
        <ele>138</ele>
        <time>2014-08-31T11:37:54Z</time>
      </trkpt>
      <trkpt lat="48.7922" lon="2.20019">
        <ele>139</ele>
        <time>2014-08-31T11:38:03Z</time>
      </trkpt>
      <trkpt lat="48.79208" lon="2.2002">
        <ele>141</ele>
        <time>2014-08-31T11:38:10Z</time>
      </trkpt>
      <trkpt lat="48.79201" lon="2.20017">
        <ele>143</ele>
        <time>2014-08-31T11:38:17Z</time>
      </trkpt>
      <trkpt lat="48.79195" lon="2.20023">
        <ele>139</ele>
        <time>2014-08-31T11:38:22Z</time>
      </trkpt>
      <trkpt lat="48.79189" lon="2.20025">
        <ele>138</ele>
        <time>2014-08-31T11:38:32Z</time>
      </trkpt>
      <trkpt lat="48.79183" lon="2.20019">
        <ele>139</ele>
        <time>2014-08-31T11:38:36Z</time>
      </trkpt>
      <trkpt lat="48.79175" lon="2.20016">
        <ele>145</ele>
        <time>2014-08-31T11:38:41Z</time>
      </trkpt>
      <trkpt lat="48.79142" lon="2.20017">
        <ele>144</ele>
        <time>2014-08-31T11:38:58Z</time>
      </trkpt>
      <trkpt lat="48.79129" lon="2.20015">
        <ele>146</ele>
        <time>2014-08-31T11:39:04Z</time>
      </trkpt>
      <trkpt lat="48.79123" lon="2.20012">
        <ele>150</ele>
        <time>2014-08-31T11:39:08Z</time>
      </trkpt>
      <trkpt lat="48.79117" lon="2.20016">
        <ele>147</ele>
        <time>2014-08-31T11:39:12Z</time>
      </trkpt>
      <trkpt lat="48.79101" lon="2.20014">
        <ele>145</ele>
        <time>2014-08-31T11:39:19Z</time>
      </trkpt>
      <trkpt lat="48.79095" lon="2.20014">
        <ele>149</ele>
        <time>2014-08-31T11:39:22Z</time>
      </trkpt>
      <trkpt lat="48.79049" lon="2.20005">
        <ele>144</ele>
        <time>2014-08-31T11:39:52Z</time>
      </trkpt>
      <trkpt lat="48.79039" lon="2.20002">
        <ele>145</ele>
        <time>2014-08-31T11:40:04Z</time>
      </trkpt>
      <trkpt lat="48.79009" lon="2.20001">
        <ele>137</ele>
        <time>2014-08-31T11:40:22Z</time>
      </trkpt>
      <trkpt lat="48.79003" lon="2.19996">
        <ele>140</ele>
        <time>2014-08-31T11:40:26Z</time>
      </trkpt>
      <trkpt lat="48.78997" lon="2.19995">
        <ele>140</ele>
        <time>2014-08-31T11:40:30Z</time>
      </trkpt>
      <trkpt lat="48.78989" lon="2.19982">
        <ele>140</ele>
        <time>2014-08-31T11:40:40Z</time>
      </trkpt>
      <trkpt lat="48.78991" lon="2.19972">
        <ele>139</ele>
        <time>2014-08-31T11:40:44Z</time>
      </trkpt>
      <trkpt lat="48.78993" lon="2.19942">
        <ele>141</ele>
        <time>2014-08-31T11:40:58Z</time>
      </trkpt>
      <trkpt lat="48.78997" lon="2.19933">
        <ele>148</ele>
        <time>2014-08-31T11:41:05Z</time>
      </trkpt>
      <trkpt lat="48.79" lon="2.19925">
        <ele>153</ele>
        <time>2014-08-31T11:41:10Z</time>
      </trkpt>
      <trkpt lat="48.79005" lon="2.19907">
        <ele>151</ele>
        <time>2014-08-31T11:41:19Z</time>
      </trkpt>
      <trkpt lat="48.79006" lon="2.19889">
        <ele>150</ele>
        <time>2014-08-31T11:41:28Z</time>
      </trkpt>
      <trkpt lat="48.79011" lon="2.19882">
        <ele>152</ele>
        <time>2014-08-31T11:41:32Z</time>
      </trkpt>
      <trkpt lat="48.79012" lon="2.19872">
        <ele>158</ele>
        <time>2014-08-31T11:41:37Z</time>
      </trkpt>
      <trkpt lat="48.79017" lon="2.19849">
        <ele>158</ele>
        <time>2014-08-31T11:41:45Z</time>
      </trkpt>
      <trkpt lat="48.79028" lon="2.19823">
        <ele>160</ele>
        <time>2014-08-31T11:41:59Z</time>
      </trkpt>
      <trkpt lat="48.79025" lon="2.19813">
        <ele>156</ele>
        <time>2014-08-31T11:42:03Z</time>
      </trkpt>
      <trkpt lat="48.79025" lon="2.19802">
        <ele>156</ele>
        <time>2014-08-31T11:42:07Z</time>
      </trkpt>
      <trkpt lat="48.79038" lon="2.19777">
        <ele>151</ele>
        <time>2014-08-31T11:42:16Z</time>
      </trkpt>
      <trkpt lat="48.79047" lon="2.19704">
        <ele>137</ele>
        <time>2014-08-31T11:42:46Z</time>
      </trkpt>
      <trkpt lat="48.79053" lon="2.19676">
        <ele>138</ele>
        <time>2014-08-31T11:42:55Z</time>
      </trkpt>
      <trkpt lat="48.79064" lon="2.19663">
        <ele>139</ele>
        <time>2014-08-31T11:43:03Z</time>
      </trkpt>
      <trkpt lat="48.79063" lon="2.1965">
        <ele>138</ele>
        <time>2014-08-31T11:43:09Z</time>
      </trkpt>
      <trkpt lat="48.79062" lon="2.19639">
        <ele>137</ele>
        <time>2014-08-31T11:43:13Z</time>
      </trkpt>
      <trkpt lat="48.79066" lon="2.19617">
        <ele>138</ele>
        <time>2014-08-31T11:43:22Z</time>
      </trkpt>
      <trkpt lat="48.79067" lon="2.19601">
        <ele>143</ele>
        <time>2014-08-31T11:43:29Z</time>
      </trkpt>
      <trkpt lat="48.79087" lon="2.1953">
        <ele>136</ele>
        <time>2014-08-31T11:44:01Z</time>
      </trkpt>
      <trkpt lat="48.79106" lon="2.19455">
        <ele>137</ele>
        <time>2014-08-31T11:44:32Z</time>
      </trkpt>
      <trkpt lat="48.7912" lon="2.19402">
        <ele>131</ele>
        <time>2014-08-31T11:44:56Z</time>
      </trkpt>
      <trkpt lat="48.79117" lon="2.19391">
        <ele>127</ele>
        <time>2014-08-31T11:45:00Z</time>
      </trkpt>
      <trkpt lat="48.79116" lon="2.19375">
        <ele>127</ele>
        <time>2014-08-31T11:45:06Z</time>
      </trkpt>
      <trkpt lat="48.79124" lon="2.19356">
        <ele>126</ele>
        <time>2014-08-31T11:45:14Z</time>
      </trkpt>
      <trkpt lat="48.79131" lon="2.19344">
        <ele>127</ele>
        <time>2014-08-31T11:45:20Z</time>
      </trkpt>
      <trkpt lat="48.79136" lon="2.19333">
        <ele>129</ele>
        <time>2014-08-31T11:45:25Z</time>
      </trkpt>
      <trkpt lat="48.79151" lon="2.19316">
        <ele>133</ele>
        <time>2014-08-31T11:45:38Z</time>
      </trkpt>
      <trkpt lat="48.79152" lon="2.19311">
        <ele>130</ele>
        <time>2014-08-31T11:45:40Z</time>
      </trkpt>
      <trkpt lat="48.79151" lon="2.19303">
        <ele>130</ele>
        <time>2014-08-31T11:45:43Z</time>
      </trkpt>
      <trkpt lat="48.79142" lon="2.19285">
        <ele>125</ele>
        <time>2014-08-31T11:45:49Z</time>
      </trkpt>
      <trkpt lat="48.7914" lon="2.1925">
        <ele>126</ele>
        <time>2014-08-31T11:46:00Z</time>
      </trkpt>
      <trkpt lat="48.79145" lon="2.19239">
        <ele>126</ele>
        <time>2014-08-31T11:46:04Z</time>
      </trkpt>
      <trkpt lat="48.79166" lon="2.19215">
        <ele>120</ele>
        <time>2014-08-31T11:46:17Z</time>
      </trkpt>
      <trkpt lat="48.79166" lon="2.19178">
        <ele>121</ele>
        <time>2014-08-31T11:46:37Z</time>
      </trkpt>
      <trkpt lat="48.7917" lon="2.19166">
        <ele>123</ele>
        <time>2014-08-31T11:46:41Z</time>
      </trkpt>
      <trkpt lat="48.79183" lon="2.19127">
        <ele>131</ele>
        <time>2014-08-31T11:46:56Z</time>
      </trkpt>
      <trkpt lat="48.79183" lon="2.19113">
        <ele>131</ele>
        <time>2014-08-31T11:47:01Z</time>
      </trkpt>
      <trkpt lat="48.79186" lon="2.19103">
        <ele>133</ele>
        <time>2014-08-31T11:47:06Z</time>
      </trkpt>
      <trkpt lat="48.79195" lon="2.19071">
        <ele>132</ele>
        <time>2014-08-31T11:47:21Z</time>
      </trkpt>
      <trkpt lat="48.79191" lon="2.19059">
        <ele>131</ele>
        <time>2014-08-31T11:47:26Z</time>
      </trkpt>
      <trkpt lat="48.79192" lon="2.19046">
        <ele>128</ele>
        <time>2014-08-31T11:47:31Z</time>
      </trkpt>
      <trkpt lat="48.79208" lon="2.19034">
        <ele>129</ele>
        <time>2014-08-31T11:47:37Z</time>
      </trkpt>
      <trkpt lat="48.79201" lon="2.19009">
        <ele>132</ele>
        <time>2014-08-31T11:47:49Z</time>
      </trkpt>
      <trkpt lat="48.79205" lon="2.18996">
        <ele>131</ele>
        <time>2014-08-31T11:47:55Z</time>
      </trkpt>
      <trkpt lat="48.7921" lon="2.18984">
        <ele>132</ele>
        <time>2014-08-31T11:48:00Z</time>
      </trkpt>
      <trkpt lat="48.79224" lon="2.18955">
        <ele>141</ele>
        <time>2014-08-31T11:48:14Z</time>
      </trkpt>
      <trkpt lat="48.79222" lon="2.18925">
        <ele>142</ele>
        <time>2014-08-31T11:48:23Z</time>
      </trkpt>
      <trkpt lat="48.79247" lon="2.18876">
        <ele>133</ele>
        <time>2014-08-31T11:48:46Z</time>
      </trkpt>
      <trkpt lat="48.79251" lon="2.18842">
        <ele>134</ele>
        <time>2014-08-31T11:48:59Z</time>
      </trkpt>
      <trkpt lat="48.7926" lon="2.18828">
        <ele>137</ele>
        <time>2014-08-31T11:49:05Z</time>
      </trkpt>
      <trkpt lat="48.7927" lon="2.18796">
        <ele>138</ele>
        <time>2014-08-31T11:49:16Z</time>
      </trkpt>
      <trkpt lat="48.79272" lon="2.18781">
        <ele>148</ele>
        <time>2014-08-31T11:49:24Z</time>
      </trkpt>
      <trkpt lat="48.79289" lon="2.18742">
        <ele>140</ele>
        <time>2014-08-31T11:49:40Z</time>
      </trkpt>
      <trkpt lat="48.79298" lon="2.18736">
        <ele>144</ele>
        <time>2014-08-31T11:49:44Z</time>
      </trkpt>
      <trkpt lat="48.79308" lon="2.18711">
        <ele>144</ele>
        <time>2014-08-31T11:49:52Z</time>
      </trkpt>
      <trkpt lat="48.79313" lon="2.18702">
        <ele>147</ele>
        <time>2014-08-31T11:49:56Z</time>
      </trkpt>
      <trkpt lat="48.79314" lon="2.1866">
        <ele>144</ele>
        <time>2014-08-31T11:50:10Z</time>
      </trkpt>
      <trkpt lat="48.79313" lon="2.18598">
        <ele>136</ele>
        <time>2014-08-31T11:50:40Z</time>
      </trkpt>
    </trkseg>
  </trk>
</gpx>